<?xml version="1.0" encoding="utf-8"?>
<gpx xmlns:xsi="http://www.w3.org/2001/XMLSchema-instance" xmlns:xsd="http://www.w3.org/2001/XMLSchema" version="1.1" creator="Shapelink.com" xmlns="http://www.topografix.com/GPX/1/1" xmlns:gpxtpx="http://www.garmin.com/xmlschemas/TrackPointExtension/v1">
  <metadata>
    <name>Cykling 47.66 km, 2011-10-23</name>
    <desc></desc>
    <author><name>Alexander Engvall</name></author> 
    <time>2011-10-23T15:56:07Z</time>
  </metadata>
  <trk>
    <name>Cykling 47.66 km, 2011-10-23</name>
    <trkseg>
      <trkpt lat="59.5715305" lon="17.9843842">
        <ele>0</ele>
        <time>2011-10-23T15:56:07Z</time>
      </trkpt>
      <trkpt lat="59.571489" lon="17.9845595">
        <ele>0</ele>
        <time>2011-10-23T15:56:10Z</time>
      </trkpt>
      <trkpt lat="59.5713789" lon="17.9851258">
        <ele>0</ele>
        <time>2011-10-23T15:56:15Z</time>
      </trkpt>
      <trkpt lat="59.5712025" lon="17.9859602">
        <ele>0</ele>
        <time>2011-10-23T15:56:21Z</time>
      </trkpt>
      <trkpt lat="59.5710213" lon="17.986943">
        <ele>0</ele>
        <time>2011-10-23T15:56:28Z</time>
      </trkpt>
      <trkpt lat="59.5710193" lon="17.9879794">
        <ele>0</ele>
        <time>2011-10-23T15:56:35Z</time>
      </trkpt>
      <trkpt lat="59.5711419" lon="17.9889192">
        <ele>0</ele>
        <time>2011-10-23T15:56:41Z</time>
      </trkpt>
      <trkpt lat="59.5713682" lon="17.9901461">
        <ele>0</ele>
        <time>2011-10-23T15:56:49Z</time>
      </trkpt>
      <trkpt lat="59.5716704" lon="17.9917737">
        <ele>0</ele>
        <time>2011-10-23T15:56:59Z</time>
      </trkpt>
      <trkpt lat="59.5719382" lon="17.9932086">
        <ele>0</ele>
        <time>2011-10-23T15:57:08Z</time>
      </trkpt>
      <trkpt lat="59.5721029" lon="17.9941167">
        <ele>0</ele>
        <time>2011-10-23T15:57:14Z</time>
      </trkpt>
      <trkpt lat="59.5723531" lon="17.9954771">
        <ele>0</ele>
        <time>2011-10-23T15:57:23Z</time>
      </trkpt>
      <trkpt lat="59.5725793" lon="17.9967588">
        <ele>0</ele>
        <time>2011-10-23T15:57:31Z</time>
      </trkpt>
      <trkpt lat="59.572715" lon="17.9976107">
        <ele>0</ele>
        <time>2011-10-23T15:57:36Z</time>
      </trkpt>
      <trkpt lat="59.5729701" lon="17.9983976">
        <ele>0</ele>
        <time>2011-10-23T15:57:41Z</time>
      </trkpt>
      <trkpt lat="59.5733192" lon="17.9990829">
        <ele>0</ele>
        <time>2011-10-23T15:57:46Z</time>
      </trkpt>
      <trkpt lat="59.5737692" lon="18.0000145">
        <ele>0</ele>
        <time>2011-10-23T15:57:53Z</time>
      </trkpt>
      <trkpt lat="59.5740819" lon="18.0009105">
        <ele>0</ele>
        <time>2011-10-23T15:57:59Z</time>
      </trkpt>
      <trkpt lat="59.5744853" lon="18.0021263">
        <ele>0</ele>
        <time>2011-10-23T15:58:07Z</time>
      </trkpt>
      <trkpt lat="59.5749462" lon="18.0034939">
        <ele>0</ele>
        <time>2011-10-23T15:58:16Z</time>
      </trkpt>
      <trkpt lat="59.5753556" lon="18.0044429">
        <ele>0</ele>
        <time>2011-10-23T15:58:23Z</time>
      </trkpt>
      <trkpt lat="59.5757159" lon="18.005428">
        <ele>0</ele>
        <time>2011-10-23T15:58:30Z</time>
      </trkpt>
      <trkpt lat="59.5759704" lon="18.0065708">
        <ele>0</ele>
        <time>2011-10-23T15:58:37Z</time>
      </trkpt>
      <trkpt lat="59.5763144" lon="18.0080037">
        <ele>0</ele>
        <time>2011-10-23T15:58:46Z</time>
      </trkpt>
      <trkpt lat="59.5765858" lon="18.0091948">
        <ele>0</ele>
        <time>2011-10-23T15:58:54Z</time>
      </trkpt>
      <trkpt lat="59.5768083" lon="18.010157">
        <ele>0</ele>
        <time>2011-10-23T15:59:01Z</time>
      </trkpt>
      <trkpt lat="59.577084" lon="18.0109662">
        <ele>0</ele>
        <time>2011-10-23T15:59:08Z</time>
      </trkpt>
      <trkpt lat="59.5772461" lon="18.0117391">
        <ele>0</ele>
        <time>2011-10-23T15:59:15Z</time>
      </trkpt>
      <trkpt lat="59.5772897" lon="18.0119747">
        <ele>0</ele>
        <time>2011-10-23T15:59:17Z</time>
      </trkpt>
      <trkpt lat="59.5773881" lon="18.0123229">
        <ele>0</ele>
        <time>2011-10-23T15:59:20Z</time>
      </trkpt>
      <trkpt lat="59.5775851" lon="18.0126902">
        <ele>0</ele>
        <time>2011-10-23T15:59:24Z</time>
      </trkpt>
      <trkpt lat="59.5780298" lon="18.0133459">
        <ele>2.54065</ele>
        <time>2011-10-23T15:59:32Z</time>
      </trkpt>
      <trkpt lat="59.5782311" lon="18.0140348">
        <ele>3.98267</ele>
        <time>2011-10-23T15:59:37Z</time>
      </trkpt>
      <trkpt lat="59.5783905" lon="18.0154061">
        <ele>3.50195</ele>
        <time>2011-10-23T15:59:45Z</time>
      </trkpt>
      <trkpt lat="59.5784222" lon="18.01575">
        <ele>3.02124</ele>
        <time>2011-10-23T15:59:47Z</time>
      </trkpt>
      <trkpt lat="59.5786268" lon="18.0166908">
        <ele>2.54065</ele>
        <time>2011-10-23T15:59:53Z</time>
      </trkpt>
      <trkpt lat="59.5790184" lon="18.0180371">
        <ele>1.57935</ele>
        <time>2011-10-23T16:00:02Z</time>
      </trkpt>
      <trkpt lat="59.579354" lon="18.0191266">
        <ele>2.54065</ele>
        <time>2011-10-23T16:00:10Z</time>
      </trkpt>
      <trkpt lat="59.5796312" lon="18.0201697">
        <ele>1.57935</ele>
        <time>2011-10-23T16:00:17Z</time>
      </trkpt>
      <trkpt lat="59.5799425" lon="18.021407">
        <ele>0</ele>
        <time>2011-10-23T16:00:24Z</time>
      </trkpt>
      <trkpt lat="59.5802291" lon="18.0227187">
        <ele>0</ele>
        <time>2011-10-23T16:00:31Z</time>
      </trkpt>
      <trkpt lat="59.5803396" lon="18.0235129">
        <ele>0</ele>
        <time>2011-10-23T16:00:35Z</time>
      </trkpt>
      <trkpt lat="59.5806624" lon="18.0245725">
        <ele>0</ele>
        <time>2011-10-23T16:00:41Z</time>
      </trkpt>
      <trkpt lat="59.5811297" lon="18.0258692">
        <ele>0</ele>
        <time>2011-10-23T16:00:49Z</time>
      </trkpt>
      <trkpt lat="59.5815069" lon="18.0270461">
        <ele>0</ele>
        <time>2011-10-23T16:00:56Z</time>
      </trkpt>
      <trkpt lat="59.581636" lon="18.0277718">
        <ele>0</ele>
        <time>2011-10-23T16:01:00Z</time>
      </trkpt>
      <trkpt lat="59.5818362" lon="18.0283372">
        <ele>0</ele>
        <time>2011-10-23T16:01:04Z</time>
      </trkpt>
      <trkpt lat="59.5819103" lon="18.0284111">
        <ele>0</ele>
        <time>2011-10-23T16:01:05Z</time>
      </trkpt>
      <trkpt lat="59.5822901" lon="18.0287961">
        <ele>2.54065</ele>
        <time>2011-10-23T16:01:11Z</time>
      </trkpt>
      <trkpt lat="59.5825475" lon="18.0290693">
        <ele>4.94385</ele>
        <time>2011-10-23T16:01:16Z</time>
      </trkpt>
      <trkpt lat="59.5828152" lon="18.0293895">
        <ele>5.42456</ele>
        <time>2011-10-23T16:01:21Z</time>
      </trkpt>
      <trkpt lat="59.5831302" lon="18.0299155">
        <ele>9.75061</ele>
        <time>2011-10-23T16:01:27Z</time>
      </trkpt>
      <trkpt lat="59.5832374" lon="18.0300922">
        <ele>10.7118</ele>
        <time>2011-10-23T16:01:29Z</time>
      </trkpt>
      <trkpt lat="59.583566" lon="18.0302844">
        <ele>11.1925</ele>
        <time>2011-10-23T16:01:34Z</time>
      </trkpt>
      <trkpt lat="59.5837064" lon="18.0302695">
        <ele>12.1538</ele>
        <time>2011-10-23T16:01:36Z</time>
      </trkpt>
      <trkpt lat="59.5841768" lon="18.0301034">
        <ele>15.5184</ele>
        <time>2011-10-23T16:01:43Z</time>
      </trkpt>
      <trkpt lat="59.584563" lon="18.0301687">
        <ele>15.0377</ele>
        <time>2011-10-23T16:01:49Z</time>
      </trkpt>
      <trkpt lat="59.5849336" lon="18.0304392">
        <ele>11.6732</ele>
        <time>2011-10-23T16:01:55Z</time>
      </trkpt>
      <trkpt lat="59.5853626" lon="18.0309617">
        <ele>6.86646</ele>
        <time>2011-10-23T16:02:02Z</time>
      </trkpt>
      <trkpt lat="59.5857587" lon="18.0313777">
        <ele>3.98267</ele>
        <time>2011-10-23T16:02:07Z</time>
      </trkpt>
      <trkpt lat="59.5861043" lon="18.0320363">
        <ele>6.86646</ele>
        <time>2011-10-23T16:02:12Z</time>
      </trkpt>
      <trkpt lat="59.5864911" lon="18.0326455">
        <ele>3.98267</ele>
        <time>2011-10-23T16:02:17Z</time>
      </trkpt>
      <trkpt lat="59.586582" lon="18.0327254">
        <ele>3.50195</ele>
        <time>2011-10-23T16:02:18Z</time>
      </trkpt>
      <trkpt lat="59.5872085" lon="18.0331891">
        <ele>3.02124</ele>
        <time>2011-10-23T16:02:25Z</time>
      </trkpt>
      <trkpt lat="59.5876363" lon="18.0338089">
        <ele>4.46326</ele>
        <time>2011-10-23T16:02:31Z</time>
      </trkpt>
      <trkpt lat="59.5878603" lon="18.0341564">
        <ele>4.46326</ele>
        <time>2011-10-23T16:02:34Z</time>
      </trkpt>
      <trkpt lat="59.5882275" lon="18.0343527">
        <ele>4.94385</ele>
        <time>2011-10-23T16:02:38Z</time>
      </trkpt>
      <trkpt lat="59.588771" lon="18.0345214">
        <ele>5.42456</ele>
        <time>2011-10-23T16:02:44Z</time>
      </trkpt>
      <trkpt lat="59.5889708" lon="18.0345585">
        <ele>5.42456</ele>
        <time>2011-10-23T16:02:46Z</time>
      </trkpt>
      <trkpt lat="59.5893631" lon="18.0348291">
        <ele>4.94385</ele>
        <time>2011-10-23T16:02:50Z</time>
      </trkpt>
      <trkpt lat="59.5897888" lon="18.0353924">
        <ele>4.94385</ele>
        <time>2011-10-23T16:02:55Z</time>
      </trkpt>
      <trkpt lat="59.5901587" lon="18.0360754">
        <ele>5.42456</ele>
        <time>2011-10-23T16:03:00Z</time>
      </trkpt>
      <trkpt lat="59.5904229" lon="18.0366791">
        <ele>5.90527</ele>
        <time>2011-10-23T16:03:04Z</time>
      </trkpt>
      <trkpt lat="59.5907583" lon="18.0370324">
        <ele>5.90527</ele>
        <time>2011-10-23T16:03:08Z</time>
      </trkpt>
      <trkpt lat="59.5908532" lon="18.0370547">
        <ele>5.90527</ele>
        <time>2011-10-23T16:03:09Z</time>
      </trkpt>
      <trkpt lat="59.5913987" lon="18.0372484">
        <ele>5.90527</ele>
        <time>2011-10-23T16:03:15Z</time>
      </trkpt>
      <trkpt lat="59.5918349" lon="18.0375618">
        <ele>4.94385</ele>
        <time>2011-10-23T16:03:20Z</time>
      </trkpt>
      <trkpt lat="59.591924" lon="18.0376229">
        <ele>4.94385</ele>
        <time>2011-10-23T16:03:21Z</time>
      </trkpt>
      <trkpt lat="59.5922316" lon="18.0380395">
        <ele>4.46326</ele>
        <time>2011-10-23T16:03:25Z</time>
      </trkpt>
      <trkpt lat="59.59244" lon="18.0386373">
        <ele>3.98267</ele>
        <time>2011-10-23T16:03:29Z</time>
      </trkpt>
      <trkpt lat="59.5926602" lon="18.0389605">
        <ele>3.98267</ele>
        <time>2011-10-23T16:03:32Z</time>
      </trkpt>
      <trkpt lat="59.592833" lon="18.0390843">
        <ele>4.46326</ele>
        <time>2011-10-23T16:03:34Z</time>
      </trkpt>
      <trkpt lat="59.5936019" lon="18.0394906">
        <ele>5.90527</ele>
        <time>2011-10-23T16:03:43Z</time>
      </trkpt>
      <trkpt lat="59.5941617" lon="18.039925">
        <ele>7.34717</ele>
        <time>2011-10-23T16:03:50Z</time>
      </trkpt>
      <trkpt lat="59.5947108" lon="18.0403402">
        <ele>8.78918</ele>
        <time>2011-10-23T16:03:57Z</time>
      </trkpt>
      <trkpt lat="59.5953793" lon="18.0408605">
        <ele>11.6732</ele>
        <time>2011-10-23T16:04:06Z</time>
      </trkpt>
      <trkpt lat="59.5957454" lon="18.0411609">
        <ele>14.0764</ele>
        <time>2011-10-23T16:04:12Z</time>
      </trkpt>
      <trkpt lat="59.5959242" lon="18.0413013">
        <ele>15.999</ele>
        <time>2011-10-23T16:04:15Z</time>
      </trkpt>
      <trkpt lat="59.5961443" lon="18.0416707">
        <ele>17.9218</ele>
        <time>2011-10-23T16:04:20Z</time>
      </trkpt>
      <trkpt lat="59.596189" lon="18.0418595">
        <ele>16.9604</ele>
        <time>2011-10-23T16:04:22Z</time>
      </trkpt>
      <trkpt lat="59.5963197" lon="18.0422761">
        <ele>15.999</ele>
        <time>2011-10-23T16:04:26Z</time>
      </trkpt>
      <trkpt lat="59.5966483" lon="18.0429396">
        <ele>14.0764</ele>
        <time>2011-10-23T16:04:33Z</time>
      </trkpt>
      <trkpt lat="59.5967468" lon="18.0431431">
        <ele>14.0764</ele>
        <time>2011-10-23T16:04:35Z</time>
      </trkpt>
      <trkpt lat="59.5968825" lon="18.0436987">
        <ele>13.5958</ele>
        <time>2011-10-23T16:04:39Z</time>
      </trkpt>
      <trkpt lat="59.5968953" lon="18.0440383">
        <ele>12.6344</ele>
        <time>2011-10-23T16:04:41Z</time>
      </trkpt>
      <trkpt lat="59.596871" lon="18.045539">
        <ele>8.30859</ele>
        <time>2011-10-23T16:04:49Z</time>
      </trkpt>
      <trkpt lat="59.596931" lon="18.0464584">
        <ele>8.30859</ele>
        <time>2011-10-23T16:04:54Z</time>
      </trkpt>
      <trkpt lat="59.5969571" lon="18.0466264">
        <ele>8.30859</ele>
        <time>2011-10-23T16:04:55Z</time>
      </trkpt>
      <trkpt lat="59.5971591" lon="18.0471952">
        <ele>8.30859</ele>
        <time>2011-10-23T16:04:59Z</time>
      </trkpt>
      <trkpt lat="59.5973026" lon="18.0474185">
        <ele>6.86646</ele>
        <time>2011-10-23T16:05:01Z</time>
      </trkpt>
      <trkpt lat="59.5977776" lon="18.0478817">
        <ele>5.90527</ele>
        <time>2011-10-23T16:05:07Z</time>
      </trkpt>
      <trkpt lat="59.5981255" lon="18.0481189">
        <ele>5.42456</ele>
        <time>2011-10-23T16:05:11Z</time>
      </trkpt>
      <trkpt lat="59.5984266" lon="18.0481981">
        <ele>6.38586</ele>
        <time>2011-10-23T16:05:14Z</time>
      </trkpt>
      <trkpt lat="59.598786" lon="18.0485544">
        <ele>3.98267</ele>
        <time>2011-10-23T16:05:18Z</time>
      </trkpt>
      <trkpt lat="59.5988436" lon="18.0487244">
        <ele>3.98267</ele>
        <time>2011-10-23T16:05:19Z</time>
      </trkpt>
      <trkpt lat="59.5992058" lon="18.0502737">
        <ele>1.57935</ele>
        <time>2011-10-23T16:05:27Z</time>
      </trkpt>
      <trkpt lat="59.5993162" lon="18.0512357">
        <ele>1.57935</ele>
        <time>2011-10-23T16:05:32Z</time>
      </trkpt>
      <trkpt lat="59.5994886" lon="18.0520591">
        <ele>2.06006</ele>
        <time>2011-10-23T16:05:37Z</time>
      </trkpt>
      <trkpt lat="59.599832" lon="18.0530119">
        <ele>5.90527</ele>
        <time>2011-10-23T16:05:44Z</time>
      </trkpt>
      <trkpt lat="59.599996" lon="18.0538435">
        <ele>6.86646</ele>
        <time>2011-10-23T16:05:50Z</time>
      </trkpt>
      <trkpt lat="59.6001183" lon="18.0548333">
        <ele>6.38586</ele>
        <time>2011-10-23T16:05:56Z</time>
      </trkpt>
      <trkpt lat="59.6002831" lon="18.0559768">
        <ele>7.34717</ele>
        <time>2011-10-23T16:06:03Z</time>
      </trkpt>
      <trkpt lat="59.6003955" lon="18.0568425">
        <ele>8.78918</ele>
        <time>2011-10-23T16:06:09Z</time>
      </trkpt>
      <trkpt lat="59.6004314" lon="18.0575081">
        <ele>9.75061</ele>
        <time>2011-10-23T16:06:14Z</time>
      </trkpt>
      <trkpt lat="59.60035" lon="18.0581727">
        <ele>9.75061</ele>
        <time>2011-10-23T16:06:20Z</time>
      </trkpt>
      <trkpt lat="59.6002381" lon="18.0587651">
        <ele>9.75061</ele>
        <time>2011-10-23T16:06:26Z</time>
      </trkpt>
      <trkpt lat="59.6000843" lon="18.0596371">
        <ele>12.6344</ele>
        <time>2011-10-23T16:06:34Z</time>
      </trkpt>
      <trkpt lat="59.600016" lon="18.0603241">
        <ele>12.6344</ele>
        <time>2011-10-23T16:06:40Z</time>
      </trkpt>
      <trkpt lat="59.5999764" lon="18.0610503">
        <ele>15.0377</ele>
        <time>2011-10-23T16:06:47Z</time>
      </trkpt>
      <trkpt lat="59.5999478" lon="18.0617345">
        <ele>14.557</ele>
        <time>2011-10-23T16:06:53Z</time>
      </trkpt>
      <trkpt lat="59.5999299" lon="18.0627654">
        <ele>15.0377</ele>
        <time>2011-10-23T16:07:01Z</time>
      </trkpt>
      <trkpt lat="59.5999173" lon="18.063298">
        <ele>15.999</ele>
        <time>2011-10-23T16:07:05Z</time>
      </trkpt>
      <trkpt lat="59.5998049" lon="18.0640507">
        <ele>15.5184</ele>
        <time>2011-10-23T16:07:11Z</time>
      </trkpt>
      <trkpt lat="59.5996402" lon="18.0647533">
        <ele>12.6344</ele>
        <time>2011-10-23T16:07:16Z</time>
      </trkpt>
      <trkpt lat="59.5992942" lon="18.0660973">
        <ele>10.2312</ele>
        <time>2011-10-23T16:07:25Z</time>
      </trkpt>
      <trkpt lat="59.5991942" lon="18.0670498">
        <ele>10.7118</ele>
        <time>2011-10-23T16:07:31Z</time>
      </trkpt>
      <trkpt lat="59.5991036" lon="18.0681859">
        <ele>11.6732</ele>
        <time>2011-10-23T16:07:38Z</time>
      </trkpt>
      <trkpt lat="59.5990202" lon="18.0692596">
        <ele>12.6344</ele>
        <time>2011-10-23T16:07:45Z</time>
      </trkpt>
      <trkpt lat="59.5989603" lon="18.0703253">
        <ele>10.7118</ele>
        <time>2011-10-23T16:07:51Z</time>
      </trkpt>
      <trkpt lat="59.598968" lon="18.0709921">
        <ele>7.82788</ele>
        <time>2011-10-23T16:07:54Z</time>
      </trkpt>
      <trkpt lat="59.5991306" lon="18.0720892">
        <ele>5.90527</ele>
        <time>2011-10-23T16:07:59Z</time>
      </trkpt>
      <trkpt lat="59.5992197" lon="18.0729218">
        <ele>4.46326</ele>
        <time>2011-10-23T16:08:03Z</time>
      </trkpt>
      <trkpt lat="59.5992406" lon="18.0738141">
        <ele>5.90527</ele>
        <time>2011-10-23T16:08:08Z</time>
      </trkpt>
      <trkpt lat="59.5992636" lon="18.0754065">
        <ele>4.46326</ele>
        <time>2011-10-23T16:08:17Z</time>
      </trkpt>
      <trkpt lat="59.599204" lon="18.0770616">
        <ele>3.50195</ele>
        <time>2011-10-23T16:08:26Z</time>
      </trkpt>
      <trkpt lat="59.5992197" lon="18.0780881">
        <ele>5.42456</ele>
        <time>2011-10-23T16:08:32Z</time>
      </trkpt>
      <trkpt lat="59.5993155" lon="18.0792546">
        <ele>6.38586</ele>
        <time>2011-10-23T16:08:39Z</time>
      </trkpt>
      <trkpt lat="59.5993813" lon="18.0806758">
        <ele>6.86646</ele>
        <time>2011-10-23T16:08:47Z</time>
      </trkpt>
      <trkpt lat="59.5993746" lon="18.080852">
        <ele>6.86646</ele>
        <time>2011-10-23T16:08:48Z</time>
      </trkpt>
      <trkpt lat="59.5994242" lon="18.0822303">
        <ele>8.78918</ele>
        <time>2011-10-23T16:08:57Z</time>
      </trkpt>
      <trkpt lat="59.5994558" lon="18.0829161">
        <ele>10.7118</ele>
        <time>2011-10-23T16:09:02Z</time>
      </trkpt>
      <trkpt lat="59.5994591" lon="18.0837501">
        <ele>12.6344</ele>
        <time>2011-10-23T16:09:09Z</time>
      </trkpt>
      <trkpt lat="59.5995258" lon="18.0842597">
        <ele>15.0377</ele>
        <time>2011-10-23T16:09:14Z</time>
      </trkpt>
      <trkpt lat="59.5996037" lon="18.0845368">
        <ele>16.4797</ele>
        <time>2011-10-23T16:09:17Z</time>
      </trkpt>
      <trkpt lat="59.5997283" lon="18.0850778">
        <ele>17.4412</ele>
        <time>2011-10-23T16:09:22Z</time>
      </trkpt>
      <trkpt lat="59.5998139" lon="18.0856792">
        <ele>16.4797</ele>
        <time>2011-10-23T16:09:27Z</time>
      </trkpt>
      <trkpt lat="59.5999197" lon="18.0867112">
        <ele>10.7118</ele>
        <time>2011-10-23T16:09:34Z</time>
      </trkpt>
      <trkpt lat="59.6000118" lon="18.0874612">
        <ele>4.94385</ele>
        <time>2011-10-23T16:09:38Z</time>
      </trkpt>
      <trkpt lat="59.6001465" lon="18.0880632">
        <ele>4.46326</ele>
        <time>2011-10-23T16:09:41Z</time>
      </trkpt>
      <trkpt lat="59.6005966" lon="18.0892794">
        <ele>3.98267</ele>
        <time>2011-10-23T16:09:48Z</time>
      </trkpt>
      <trkpt lat="59.6008391" lon="18.0902362">
        <ele>3.98267</ele>
        <time>2011-10-23T16:09:53Z</time>
      </trkpt>
      <trkpt lat="59.600998" lon="18.0913979">
        <ele>5.42456</ele>
        <time>2011-10-23T16:09:59Z</time>
      </trkpt>
      <trkpt lat="59.6011577" lon="18.0928423">
        <ele>6.38586</ele>
        <time>2011-10-23T16:10:07Z</time>
      </trkpt>
      <trkpt lat="59.6012444" lon="18.0937427">
        <ele>5.90527</ele>
        <time>2011-10-23T16:10:12Z</time>
      </trkpt>
      <trkpt lat="59.6012322" lon="18.0948447">
        <ele>4.94385</ele>
        <time>2011-10-23T16:10:18Z</time>
      </trkpt>
      <trkpt lat="59.6012612" lon="18.0964808">
        <ele>3.50195</ele>
        <time>2011-10-23T16:10:27Z</time>
      </trkpt>
      <trkpt lat="59.6013586" lon="18.0977525">
        <ele>3.02124</ele>
        <time>2011-10-23T16:10:34Z</time>
      </trkpt>
      <trkpt lat="59.601427" lon="18.0982858">
        <ele>3.02124</ele>
        <time>2011-10-23T16:10:37Z</time>
      </trkpt>
      <trkpt lat="59.6015984" lon="18.0989276">
        <ele>2.54065</ele>
        <time>2011-10-23T16:10:41Z</time>
      </trkpt>
      <trkpt lat="59.6017223" lon="18.0992065">
        <ele>2.06006</ele>
        <time>2011-10-23T16:10:43Z</time>
      </trkpt>
      <trkpt lat="59.6019484" lon="18.1000032">
        <ele>1.09863</ele>
        <time>2011-10-23T16:10:48Z</time>
      </trkpt>
      <trkpt lat="59.6022944" lon="18.101297">
        <ele>0</ele>
        <time>2011-10-23T16:10:56Z</time>
      </trkpt>
      <trkpt lat="59.6026245" lon="18.1022217">
        <ele>0</ele>
        <time>2011-10-23T16:11:02Z</time>
      </trkpt>
      <trkpt lat="59.603056" lon="18.1034133">
        <ele>0</ele>
        <time>2011-10-23T16:11:10Z</time>
      </trkpt>
      <trkpt lat="59.6034248" lon="18.1045273">
        <ele>0</ele>
        <time>2011-10-23T16:11:17Z</time>
      </trkpt>
      <trkpt lat="59.6035502" lon="18.1054585">
        <ele>0</ele>
        <time>2011-10-23T16:11:22Z</time>
      </trkpt>
      <trkpt lat="59.6036865" lon="18.1063737">
        <ele>0</ele>
        <time>2011-10-23T16:11:27Z</time>
      </trkpt>
      <trkpt lat="59.603921" lon="18.1073841">
        <ele>0</ele>
        <time>2011-10-23T16:11:33Z</time>
      </trkpt>
      <trkpt lat="59.6042026" lon="18.1083168">
        <ele>0</ele>
        <time>2011-10-23T16:11:39Z</time>
      </trkpt>
      <trkpt lat="59.6042295" lon="18.1084794">
        <ele>0</ele>
        <time>2011-10-23T16:11:40Z</time>
      </trkpt>
      <trkpt lat="59.60426" lon="18.109149">
        <ele>0</ele>
        <time>2011-10-23T16:11:44Z</time>
      </trkpt>
      <trkpt lat="59.6041992" lon="18.1099397">
        <ele>0</ele>
        <time>2011-10-23T16:11:49Z</time>
      </trkpt>
      <trkpt lat="59.6042558" lon="18.110526">
        <ele>0</ele>
        <time>2011-10-23T16:11:53Z</time>
      </trkpt>
      <trkpt lat="59.6044206" lon="18.1108448">
        <ele>0</ele>
        <time>2011-10-23T16:11:56Z</time>
      </trkpt>
      <trkpt lat="59.6049847" lon="18.1114435">
        <ele>1.57935</ele>
        <time>2011-10-23T16:12:04Z</time>
      </trkpt>
      <trkpt lat="59.6053997" lon="18.1117584">
        <ele>4.46326</ele>
        <time>2011-10-23T16:12:10Z</time>
      </trkpt>
      <trkpt lat="59.6056009" lon="18.1122169">
        <ele>7.82788</ele>
        <time>2011-10-23T16:12:15Z</time>
      </trkpt>
      <trkpt lat="59.6056052" lon="18.1124715">
        <ele>7.82788</ele>
        <time>2011-10-23T16:12:17Z</time>
      </trkpt>
      <trkpt lat="59.6056107" lon="18.1130706">
        <ele>6.38586</ele>
        <time>2011-10-23T16:12:21Z</time>
      </trkpt>
      <trkpt lat="59.6057638" lon="18.1140497">
        <ele>4.94385</ele>
        <time>2011-10-23T16:12:27Z</time>
      </trkpt>
      <trkpt lat="59.6058423" lon="18.1149644">
        <ele>3.02124</ele>
        <time>2011-10-23T16:12:32Z</time>
      </trkpt>
      <trkpt lat="59.6059259" lon="18.116709">
        <ele>0.618042</ele>
        <time>2011-10-23T16:12:41Z</time>
      </trkpt>
      <trkpt lat="59.6059865" lon="18.117539">
        <ele>0.618042</ele>
        <time>2011-10-23T16:12:46Z</time>
      </trkpt>
      <trkpt lat="59.6061139" lon="18.1184309">
        <ele>2.06006</ele>
        <time>2011-10-23T16:12:52Z</time>
      </trkpt>
      <trkpt lat="59.6061694" lon="18.1188431">
        <ele>2.54065</ele>
        <time>2011-10-23T16:12:55Z</time>
      </trkpt>
      <trkpt lat="59.6063382" lon="18.1194312">
        <ele>4.46326</ele>
        <time>2011-10-23T16:13:00Z</time>
      </trkpt>
      <trkpt lat="59.6063893" lon="18.1195281">
        <ele>4.46326</ele>
        <time>2011-10-23T16:13:01Z</time>
      </trkpt>
      <trkpt lat="59.6066486" lon="18.1202059">
        <ele>5.42456</ele>
        <time>2011-10-23T16:13:07Z</time>
      </trkpt>
      <trkpt lat="59.6067235" lon="18.1204533">
        <ele>6.38586</ele>
        <time>2011-10-23T16:13:09Z</time>
      </trkpt>
      <trkpt lat="59.6070943" lon="18.1212261">
        <ele>5.42456</ele>
        <time>2011-10-23T16:13:16Z</time>
      </trkpt>
      <trkpt lat="59.607445" lon="18.121986">
        <ele>4.46326</ele>
        <time>2011-10-23T16:13:22Z</time>
      </trkpt>
      <trkpt lat="59.6075945" lon="18.1226342">
        <ele>3.50195</ele>
        <time>2011-10-23T16:13:26Z</time>
      </trkpt>
      <trkpt lat="59.6076095" lon="18.1230003">
        <ele>2.54065</ele>
        <time>2011-10-23T16:13:28Z</time>
      </trkpt>
      <trkpt lat="59.6075891" lon="18.1239036">
        <ele>2.06006</ele>
        <time>2011-10-23T16:13:33Z</time>
      </trkpt>
      <trkpt lat="59.6074508" lon="18.1245173">
        <ele>1.57935</ele>
        <time>2011-10-23T16:13:37Z</time>
      </trkpt>
      <trkpt lat="59.607342" lon="18.1247708">
        <ele>1.57935</ele>
        <time>2011-10-23T16:13:39Z</time>
      </trkpt>
      <trkpt lat="59.6071753" lon="18.1255085">
        <ele>0.618042</ele>
        <time>2011-10-23T16:13:44Z</time>
      </trkpt>
      <trkpt lat="59.6071501" lon="18.1256674">
        <ele>0.618042</ele>
        <time>2011-10-23T16:13:45Z</time>
      </trkpt>
      <trkpt lat="59.6070482" lon="18.1261356">
        <ele>0</ele>
        <time>2011-10-23T16:13:48Z</time>
      </trkpt>
      <trkpt lat="59.6070556" lon="18.1267615">
        <ele>0.137451</ele>
        <time>2011-10-23T16:13:52Z</time>
      </trkpt>
      <trkpt lat="59.6070962" lon="18.1268956">
        <ele>0.137451</ele>
        <time>2011-10-23T16:13:53Z</time>
      </trkpt>
      <trkpt lat="59.6071412" lon="18.1270219">
        <ele>0.618042</ele>
        <time>2011-10-23T16:13:54Z</time>
      </trkpt>
      <trkpt lat="59.6073194" lon="18.1276428">
        <ele>2.06006</ele>
        <time>2011-10-23T16:13:59Z</time>
      </trkpt>
      <trkpt lat="59.6073657" lon="18.1278938">
        <ele>3.50195</ele>
        <time>2011-10-23T16:14:01Z</time>
      </trkpt>
      <trkpt lat="59.6074012" lon="18.1285638">
        <ele>3.98267</ele>
        <time>2011-10-23T16:14:06Z</time>
      </trkpt>
      <trkpt lat="59.6075275" lon="18.129052">
        <ele>5.42456</ele>
        <time>2011-10-23T16:14:10Z</time>
      </trkpt>
      <trkpt lat="59.6076468" lon="18.1292168">
        <ele>6.38586</ele>
        <time>2011-10-23T16:14:12Z</time>
      </trkpt>
      <trkpt lat="59.6079979" lon="18.1295498">
        <ele>6.86646</ele>
        <time>2011-10-23T16:14:17Z</time>
      </trkpt>
      <trkpt lat="59.6083263" lon="18.1300437">
        <ele>9.2699</ele>
        <time>2011-10-23T16:14:23Z</time>
      </trkpt>
      <trkpt lat="59.6086194" lon="18.1304176">
        <ele>10.7118</ele>
        <time>2011-10-23T16:14:29Z</time>
      </trkpt>
      <trkpt lat="59.6087602" lon="18.1306005">
        <ele>13.1151</ele>
        <time>2011-10-23T16:14:32Z</time>
      </trkpt>
      <trkpt lat="59.6088638" lon="18.1307166">
        <ele>14.0764</ele>
        <time>2011-10-23T16:14:34Z</time>
      </trkpt>
      <trkpt lat="59.6091758" lon="18.1308662">
        <ele>14.557</ele>
        <time>2011-10-23T16:14:39Z</time>
      </trkpt>
      <trkpt lat="59.6093358" lon="18.1311693">
        <ele>14.0764</ele>
        <time>2011-10-23T16:14:42Z</time>
      </trkpt>
      <trkpt lat="59.6093875" lon="18.1317061">
        <ele>15.0377</ele>
        <time>2011-10-23T16:14:46Z</time>
      </trkpt>
      <trkpt lat="59.609436" lon="18.1322297">
        <ele>14.0764</ele>
        <time>2011-10-23T16:14:50Z</time>
      </trkpt>
      <trkpt lat="59.6094205" lon="18.132785">
        <ele>11.1925</ele>
        <time>2011-10-23T16:14:54Z</time>
      </trkpt>
      <trkpt lat="59.6094945" lon="18.1337996">
        <ele>8.78918</ele>
        <time>2011-10-23T16:15:00Z</time>
      </trkpt>
      <trkpt lat="59.6095483" lon="18.1341354">
        <ele>8.78918</ele>
        <time>2011-10-23T16:15:02Z</time>
      </trkpt>
      <trkpt lat="59.6097503" lon="18.1346714">
        <ele>6.38586</ele>
        <time>2011-10-23T16:15:06Z</time>
      </trkpt>
      <trkpt lat="59.6100368" lon="18.1348761">
        <ele>8.30859</ele>
        <time>2011-10-23T16:15:10Z</time>
      </trkpt>
      <trkpt lat="59.6103129" lon="18.1350156">
        <ele>8.78918</ele>
        <time>2011-10-23T16:15:14Z</time>
      </trkpt>
      <trkpt lat="59.610636" lon="18.1353812">
        <ele>10.7118</ele>
        <time>2011-10-23T16:15:19Z</time>
      </trkpt>
      <trkpt lat="59.6107497" lon="18.1355751">
        <ele>11.1925</ele>
        <time>2011-10-23T16:15:21Z</time>
      </trkpt>
      <trkpt lat="59.6108494" lon="18.1358011">
        <ele>11.1925</ele>
        <time>2011-10-23T16:15:23Z</time>
      </trkpt>
      <trkpt lat="59.6110609" lon="18.1361805">
        <ele>9.2699</ele>
        <time>2011-10-23T16:15:27Z</time>
      </trkpt>
      <trkpt lat="59.6111389" lon="18.136225">
        <ele>8.78918</ele>
        <time>2011-10-23T16:15:28Z</time>
      </trkpt>
      <trkpt lat="59.6116338" lon="18.1364039">
        <ele>9.2699</ele>
        <time>2011-10-23T16:15:34Z</time>
      </trkpt>
      <trkpt lat="59.6119017" lon="18.1367279">
        <ele>8.30859</ele>
        <time>2011-10-23T16:15:38Z</time>
      </trkpt>
      <trkpt lat="59.6121151" lon="18.137134">
        <ele>8.78918</ele>
        <time>2011-10-23T16:15:42Z</time>
      </trkpt>
      <trkpt lat="59.6124611" lon="18.1375066">
        <ele>9.2699</ele>
        <time>2011-10-23T16:15:47Z</time>
      </trkpt>
      <trkpt lat="59.6127123" lon="18.1375316">
        <ele>11.1925</ele>
        <time>2011-10-23T16:15:50Z</time>
      </trkpt>
      <trkpt lat="59.6129667" lon="18.1374718">
        <ele>12.6344</ele>
        <time>2011-10-23T16:15:53Z</time>
      </trkpt>
      <trkpt lat="59.6133008" lon="18.1375444">
        <ele>13.1151</ele>
        <time>2011-10-23T16:15:57Z</time>
      </trkpt>
      <trkpt lat="59.6137685" lon="18.1377856">
        <ele>15.5184</ele>
        <time>2011-10-23T16:16:03Z</time>
      </trkpt>
      <trkpt lat="59.6142108" lon="18.1378541">
        <ele>18.8831</ele>
        <time>2011-10-23T16:16:09Z</time>
      </trkpt>
      <trkpt lat="59.6145284" lon="18.137981">
        <ele>19.8444</ele>
        <time>2011-10-23T16:16:14Z</time>
      </trkpt>
      <trkpt lat="59.6149228" lon="18.1383032">
        <ele>20.325</ele>
        <time>2011-10-23T16:16:20Z</time>
      </trkpt>
      <trkpt lat="59.6153635" lon="18.1387524">
        <ele>20.325</ele>
        <time>2011-10-23T16:16:27Z</time>
      </trkpt>
      <trkpt lat="59.6155028" lon="18.1388741">
        <ele>19.3638</ele>
        <time>2011-10-23T16:16:29Z</time>
      </trkpt>
      <trkpt lat="59.6158632" lon="18.1389514">
        <ele>17.9218</ele>
        <time>2011-10-23T16:16:33Z</time>
      </trkpt>
      <trkpt lat="59.61605" lon="18.1389427">
        <ele>17.9218</ele>
        <time>2011-10-23T16:16:35Z</time>
      </trkpt>
      <trkpt lat="59.616474" lon="18.1391741">
        <ele>18.8831</ele>
        <time>2011-10-23T16:16:40Z</time>
      </trkpt>
      <trkpt lat="59.6166638" lon="18.1394486">
        <ele>18.8831</ele>
        <time>2011-10-23T16:16:43Z</time>
      </trkpt>
      <trkpt lat="59.6170885" lon="18.1404511">
        <ele>16.9604</ele>
        <time>2011-10-23T16:16:52Z</time>
      </trkpt>
      <trkpt lat="59.617315" lon="18.1411706">
        <ele>15.999</ele>
        <time>2011-10-23T16:16:58Z</time>
      </trkpt>
      <trkpt lat="59.6174086" lon="18.1414092">
        <ele>15.999</ele>
        <time>2011-10-23T16:17:00Z</time>
      </trkpt>
      <trkpt lat="59.6179205" lon="18.1422765">
        <ele>13.5958</ele>
        <time>2011-10-23T16:17:08Z</time>
      </trkpt>
      <trkpt lat="59.6180928" lon="18.1428427">
        <ele>14.557</ele>
        <time>2011-10-23T16:17:12Z</time>
      </trkpt>
      <trkpt lat="59.6181785" lon="18.1434582">
        <ele>15.999</ele>
        <time>2011-10-23T16:17:16Z</time>
      </trkpt>
      <trkpt lat="59.6182255" lon="18.1437638">
        <ele>15.999</ele>
        <time>2011-10-23T16:17:18Z</time>
      </trkpt>
      <trkpt lat="59.6182544" lon="18.1446204">
        <ele>14.0764</ele>
        <time>2011-10-23T16:17:23Z</time>
      </trkpt>
      <trkpt lat="59.618351" lon="18.1453049">
        <ele>13.5958</ele>
        <time>2011-10-23T16:17:27Z</time>
      </trkpt>
      <trkpt lat="59.6184113" lon="18.1456682">
        <ele>12.6344</ele>
        <time>2011-10-23T16:17:29Z</time>
      </trkpt>
      <trkpt lat="59.6183864" lon="18.1463972">
        <ele>12.6344</ele>
        <time>2011-10-23T16:17:33Z</time>
      </trkpt>
      <trkpt lat="59.6183099" lon="18.1470889">
        <ele>13.1151</ele>
        <time>2011-10-23T16:17:37Z</time>
      </trkpt>
      <trkpt lat="59.6182631" lon="18.1474162">
        <ele>12.1538</ele>
        <time>2011-10-23T16:17:39Z</time>
      </trkpt>
      <trkpt lat="59.6182804" lon="18.1481315">
        <ele>12.1538</ele>
        <time>2011-10-23T16:17:43Z</time>
      </trkpt>
      <trkpt lat="59.6184251" lon="18.1484088">
        <ele>10.2312</ele>
        <time>2011-10-23T16:17:45Z</time>
      </trkpt>
      <trkpt lat="59.6188109" lon="18.1490933">
        <ele>7.34717</ele>
        <time>2011-10-23T16:17:50Z</time>
      </trkpt>
      <trkpt lat="59.6189978" lon="18.1497964">
        <ele>6.38586</ele>
        <time>2011-10-23T16:17:54Z</time>
      </trkpt>
      <trkpt lat="59.6190192" lon="18.1504107">
        <ele>5.90527</ele>
        <time>2011-10-23T16:17:57Z</time>
      </trkpt>
      <trkpt lat="59.6190445" lon="18.1506101">
        <ele>5.42456</ele>
        <time>2011-10-23T16:17:58Z</time>
      </trkpt>
      <trkpt lat="59.6192973" lon="18.1521387">
        <ele>6.86646</ele>
        <time>2011-10-23T16:18:06Z</time>
      </trkpt>
      <trkpt lat="59.6195009" lon="18.1529225">
        <ele>6.38586</ele>
        <time>2011-10-23T16:18:11Z</time>
      </trkpt>
      <trkpt lat="59.6195322" lon="18.1536235">
        <ele>4.94385</ele>
        <time>2011-10-23T16:18:15Z</time>
      </trkpt>
      <trkpt lat="59.6193981" lon="18.1541099">
        <ele>4.46326</ele>
        <time>2011-10-23T16:18:18Z</time>
      </trkpt>
      <trkpt lat="59.6192616" lon="18.154343">
        <ele>4.46326</ele>
        <time>2011-10-23T16:18:20Z</time>
      </trkpt>
      <trkpt lat="59.6191296" lon="18.1545422">
        <ele>4.46326</ele>
        <time>2011-10-23T16:18:22Z</time>
      </trkpt>
      <trkpt lat="59.6190124" lon="18.1547518">
        <ele>3.98267</ele>
        <time>2011-10-23T16:18:24Z</time>
      </trkpt>
      <trkpt lat="59.6188668" lon="18.1551144">
        <ele>4.46326</ele>
        <time>2011-10-23T16:18:27Z</time>
      </trkpt>
      <trkpt lat="59.6187646" lon="18.1557062">
        <ele>3.50195</ele>
        <time>2011-10-23T16:18:31Z</time>
      </trkpt>
      <trkpt lat="59.6188053" lon="18.1561836">
        <ele>3.98267</ele>
        <time>2011-10-23T16:18:34Z</time>
      </trkpt>
      <trkpt lat="59.6189139" lon="18.1568751">
        <ele>6.38586</ele>
        <time>2011-10-23T16:18:39Z</time>
      </trkpt>
      <trkpt lat="59.6189942" lon="18.1579649">
        <ele>5.42456</ele>
        <time>2011-10-23T16:18:47Z</time>
      </trkpt>
      <trkpt lat="59.6189667" lon="18.1587279">
        <ele>5.42456</ele>
        <time>2011-10-23T16:18:52Z</time>
      </trkpt>
      <trkpt lat="59.618921" lon="18.1595329">
        <ele>1.57935</ele>
        <time>2011-10-23T16:18:56Z</time>
      </trkpt>
      <trkpt lat="59.6189103" lon="18.1599782">
        <ele>0.618042</ele>
        <time>2011-10-23T16:18:58Z</time>
      </trkpt>
      <trkpt lat="59.6190425" lon="18.160807">
        <ele>0</ele>
        <time>2011-10-23T16:19:02Z</time>
      </trkpt>
      <trkpt lat="59.6191728" lon="18.1611375">
        <ele>0</ele>
        <time>2011-10-23T16:19:04Z</time>
      </trkpt>
      <trkpt lat="59.6194538" lon="18.1616843">
        <ele>0.137451</ele>
        <time>2011-10-23T16:19:08Z</time>
      </trkpt>
      <trkpt lat="59.6197783" lon="18.1620649">
        <ele>0</ele>
        <time>2011-10-23T16:19:12Z</time>
      </trkpt>
      <trkpt lat="59.6203551" lon="18.1625307">
        <ele>0.618042</ele>
        <time>2011-10-23T16:19:19Z</time>
      </trkpt>
      <trkpt lat="59.6208112" lon="18.1632132">
        <ele>1.09863</ele>
        <time>2011-10-23T16:19:25Z</time>
      </trkpt>
      <trkpt lat="59.6212463" lon="18.1638457">
        <ele>1.09863</ele>
        <time>2011-10-23T16:19:31Z</time>
      </trkpt>
      <trkpt lat="59.6213988" lon="18.1643808">
        <ele>2.06006</ele>
        <time>2011-10-23T16:19:35Z</time>
      </trkpt>
      <trkpt lat="59.6214008" lon="18.1646642">
        <ele>2.54065</ele>
        <time>2011-10-23T16:19:37Z</time>
      </trkpt>
      <trkpt lat="59.6213688" lon="18.1650408">
        <ele>2.54065</ele>
        <time>2011-10-23T16:19:40Z</time>
      </trkpt>
      <trkpt lat="59.62143" lon="18.1654937">
        <ele>2.06006</ele>
        <time>2011-10-23T16:19:44Z</time>
      </trkpt>
      <trkpt lat="59.6215328" lon="18.165676">
        <ele>1.57935</ele>
        <time>2011-10-23T16:19:46Z</time>
      </trkpt>
      <trkpt lat="59.6220773" lon="18.1662406">
        <ele>1.09863</ele>
        <time>2011-10-23T16:19:53Z</time>
      </trkpt>
      <trkpt lat="59.6229542" lon="18.1671098">
        <ele>1.09863</ele>
        <time>2011-10-23T16:20:03Z</time>
      </trkpt>
      <trkpt lat="59.6239095" lon="18.1680551">
        <ele>2.54065</ele>
        <time>2011-10-23T16:20:14Z</time>
      </trkpt>
      <trkpt lat="59.6245176" lon="18.1686049">
        <ele>2.54065</ele>
        <time>2011-10-23T16:20:21Z</time>
      </trkpt>
      <trkpt lat="59.6251851" lon="18.1689983">
        <ele>3.50195</ele>
        <time>2011-10-23T16:20:28Z</time>
      </trkpt>
      <trkpt lat="59.6260299" lon="18.1693674">
        <ele>3.98267</ele>
        <time>2011-10-23T16:20:37Z</time>
      </trkpt>
      <trkpt lat="59.6267585" lon="18.1696919">
        <ele>4.46326</ele>
        <time>2011-10-23T16:20:45Z</time>
      </trkpt>
      <trkpt lat="59.6275025" lon="18.1699311">
        <ele>4.46326</ele>
        <time>2011-10-23T16:20:53Z</time>
      </trkpt>
      <trkpt lat="59.6282659" lon="18.1700029">
        <ele>3.50195</ele>
        <time>2011-10-23T16:21:01Z</time>
      </trkpt>
      <trkpt lat="59.6290101" lon="18.170047">
        <ele>3.50195</ele>
        <time>2011-10-23T16:21:09Z</time>
      </trkpt>
      <trkpt lat="59.6299207" lon="18.1700811">
        <ele>1.09863</ele>
        <time>2011-10-23T16:21:19Z</time>
      </trkpt>
      <trkpt lat="59.6308654" lon="18.1701351">
        <ele>0.137451</ele>
        <time>2011-10-23T16:21:30Z</time>
      </trkpt>
      <trkpt lat="59.6317026" lon="18.1701691">
        <ele>0</ele>
        <time>2011-10-23T16:21:39Z</time>
      </trkpt>
      <trkpt lat="59.6324614" lon="18.1700583">
        <ele>0.137451</ele>
        <time>2011-10-23T16:21:47Z</time>
      </trkpt>
      <trkpt lat="59.6330001" lon="18.1698854">
        <ele>1.57935</ele>
        <time>2011-10-23T16:21:53Z</time>
      </trkpt>
      <trkpt lat="59.6337497" lon="18.1695362">
        <ele>4.46326</ele>
        <time>2011-10-23T16:22:02Z</time>
      </trkpt>
      <trkpt lat="59.6345631" lon="18.1690548">
        <ele>5.90527</ele>
        <time>2011-10-23T16:22:12Z</time>
      </trkpt>
      <trkpt lat="59.634948" lon="18.1688343">
        <ele>4.46326</ele>
        <time>2011-10-23T16:22:17Z</time>
      </trkpt>
      <trkpt lat="59.6352565" lon="18.1688896">
        <ele>3.50195</ele>
        <time>2011-10-23T16:22:21Z</time>
      </trkpt>
      <trkpt lat="59.6357932" lon="18.1692881">
        <ele>4.46326</ele>
        <time>2011-10-23T16:22:29Z</time>
      </trkpt>
      <trkpt lat="59.6361495" lon="18.1694786">
        <ele>5.90527</ele>
        <time>2011-10-23T16:22:35Z</time>
      </trkpt>
      <trkpt lat="59.636681" lon="18.1696251">
        <ele>8.30859</ele>
        <time>2011-10-23T16:22:44Z</time>
      </trkpt>
      <trkpt lat="59.636936" lon="18.1696886">
        <ele>10.2312</ele>
        <time>2011-10-23T16:22:48Z</time>
      </trkpt>
      <trkpt lat="59.6373453" lon="18.1700081">
        <ele>9.75061</ele>
        <time>2011-10-23T16:22:54Z</time>
      </trkpt>
      <trkpt lat="59.6374712" lon="18.1701154">
        <ele>10.2312</ele>
        <time>2011-10-23T16:22:56Z</time>
      </trkpt>
      <trkpt lat="59.6377193" lon="18.170179">
        <ele>12.1538</ele>
        <time>2011-10-23T16:23:00Z</time>
      </trkpt>
      <trkpt lat="59.6382395" lon="18.1700496">
        <ele>15.0377</ele>
        <time>2011-10-23T16:23:09Z</time>
      </trkpt>
      <trkpt lat="59.6385707" lon="18.1698422">
        <ele>18.8831</ele>
        <time>2011-10-23T16:23:16Z</time>
      </trkpt>
      <trkpt lat="59.6387806" lon="18.1696216">
        <ele>20.8057</ele>
        <time>2011-10-23T16:23:21Z</time>
      </trkpt>
      <trkpt lat="59.6390248" lon="18.1696051">
        <ele>22.7283</ele>
        <time>2011-10-23T16:23:26Z</time>
      </trkpt>
      <trkpt lat="59.6391957" lon="18.1698795">
        <ele>22.7283</ele>
        <time>2011-10-23T16:23:30Z</time>
      </trkpt>
      <trkpt lat="59.6392208" lon="18.1699811">
        <ele>22.7283</ele>
        <time>2011-10-23T16:23:31Z</time>
      </trkpt>
      <trkpt lat="59.6393896" lon="18.1708607">
        <ele>19.3638</ele>
        <time>2011-10-23T16:23:38Z</time>
      </trkpt>
      <trkpt lat="59.6394482" lon="18.1711229">
        <ele>17.9218</ele>
        <time>2011-10-23T16:23:40Z</time>
      </trkpt>
      <trkpt lat="59.6396846" lon="18.1715974">
        <ele>15.999</ele>
        <time>2011-10-23T16:23:45Z</time>
      </trkpt>
      <trkpt lat="59.6398782" lon="18.1719252">
        <ele>14.557</ele>
        <time>2011-10-23T16:23:48Z</time>
      </trkpt>
      <trkpt lat="59.6400016" lon="18.1724732">
        <ele>11.6732</ele>
        <time>2011-10-23T16:23:51Z</time>
      </trkpt>
      <trkpt lat="59.6401669" lon="18.1732523">
        <ele>7.82788</ele>
        <time>2011-10-23T16:23:55Z</time>
      </trkpt>
      <trkpt lat="59.6403451" lon="18.1735012">
        <ele>5.42456</ele>
        <time>2011-10-23T16:23:57Z</time>
      </trkpt>
      <trkpt lat="59.6404451" lon="18.1735876">
        <ele>5.42456</ele>
        <time>2011-10-23T16:23:58Z</time>
      </trkpt>
      <trkpt lat="59.640892" lon="18.1740464">
        <ele>8.30859</ele>
        <time>2011-10-23T16:24:03Z</time>
      </trkpt>
      <trkpt lat="59.641227" lon="18.174622">
        <ele>7.82788</ele>
        <time>2011-10-23T16:24:08Z</time>
      </trkpt>
      <trkpt lat="59.6415101" lon="18.1751489">
        <ele>8.30859</ele>
        <time>2011-10-23T16:24:13Z</time>
      </trkpt>
      <trkpt lat="59.6416679" lon="18.1755032">
        <ele>10.2312</ele>
        <time>2011-10-23T16:24:17Z</time>
      </trkpt>
      <trkpt lat="59.6416955" lon="18.1755839">
        <ele>10.7118</ele>
        <time>2011-10-23T16:24:18Z</time>
      </trkpt>
      <trkpt lat="59.641956" lon="18.1762137">
        <ele>15.5184</ele>
        <time>2011-10-23T16:24:24Z</time>
      </trkpt>
      <trkpt lat="59.6421279" lon="18.1768143">
        <ele>17.9218</ele>
        <time>2011-10-23T16:24:29Z</time>
      </trkpt>
      <trkpt lat="59.6422985" lon="18.1775434">
        <ele>14.557</ele>
        <time>2011-10-23T16:24:34Z</time>
      </trkpt>
      <trkpt lat="59.6424166" lon="18.1782019">
        <ele>12.6344</ele>
        <time>2011-10-23T16:24:38Z</time>
      </trkpt>
      <trkpt lat="59.6426343" lon="18.1787826">
        <ele>9.2699</ele>
        <time>2011-10-23T16:24:42Z</time>
      </trkpt>
      <trkpt lat="59.6428211" lon="18.1788638">
        <ele>8.30859</ele>
        <time>2011-10-23T16:24:44Z</time>
      </trkpt>
      <trkpt lat="59.6429139" lon="18.1788441">
        <ele>7.34717</ele>
        <time>2011-10-23T16:24:45Z</time>
      </trkpt>
      <trkpt lat="59.6433954" lon="18.1788473">
        <ele>6.38586</ele>
        <time>2011-10-23T16:24:50Z</time>
      </trkpt>
      <trkpt lat="59.6440784" lon="18.1793894">
        <ele>7.82788</ele>
        <time>2011-10-23T16:24:58Z</time>
      </trkpt>
      <trkpt lat="59.6445021" lon="18.1796334">
        <ele>8.78918</ele>
        <time>2011-10-23T16:25:03Z</time>
      </trkpt>
      <trkpt lat="59.6449855" lon="18.1800415">
        <ele>10.7118</ele>
        <time>2011-10-23T16:25:09Z</time>
      </trkpt>
      <trkpt lat="59.6454133" lon="18.180376">
        <ele>13.5958</ele>
        <time>2011-10-23T16:25:15Z</time>
      </trkpt>
      <trkpt lat="59.6454788" lon="18.1804335">
        <ele>14.0764</ele>
        <time>2011-10-23T16:25:16Z</time>
      </trkpt>
      <trkpt lat="59.6458268" lon="18.1809397">
        <ele>17.4412</ele>
        <time>2011-10-23T16:25:22Z</time>
      </trkpt>
      <trkpt lat="59.6460467" lon="18.1815445">
        <ele>17.4412</ele>
        <time>2011-10-23T16:25:27Z</time>
      </trkpt>
      <trkpt lat="59.646167" lon="18.1821089">
        <ele>16.4797</ele>
        <time>2011-10-23T16:25:32Z</time>
      </trkpt>
      <trkpt lat="59.6462633" lon="18.1827119">
        <ele>16.9604</ele>
        <time>2011-10-23T16:25:37Z</time>
      </trkpt>
      <trkpt lat="59.6464482" lon="18.183393">
        <ele>13.5958</ele>
        <time>2011-10-23T16:25:43Z</time>
      </trkpt>
      <trkpt lat="59.6466019" lon="18.183752">
        <ele>11.1925</ele>
        <time>2011-10-23T16:25:46Z</time>
      </trkpt>
      <trkpt lat="59.6469346" lon="18.1841786">
        <ele>6.38586</ele>
        <time>2011-10-23T16:25:50Z</time>
      </trkpt>
      <trkpt lat="59.6471144" lon="18.1843652">
        <ele>3.98267</ele>
        <time>2011-10-23T16:25:52Z</time>
      </trkpt>
      <trkpt lat="59.6473718" lon="18.1849518">
        <ele>3.98267</ele>
        <time>2011-10-23T16:25:56Z</time>
      </trkpt>
      <trkpt lat="59.6476288" lon="18.185853">
        <ele>5.90527</ele>
        <time>2011-10-23T16:26:02Z</time>
      </trkpt>
      <trkpt lat="59.6476845" lon="18.1860836">
        <ele>6.38586</ele>
        <time>2011-10-23T16:26:04Z</time>
      </trkpt>
      <trkpt lat="59.6479001" lon="18.1867641">
        <ele>9.2699</ele>
        <time>2011-10-23T16:26:11Z</time>
      </trkpt>
      <trkpt lat="59.6481504" lon="18.1875438">
        <ele>12.1538</ele>
        <time>2011-10-23T16:26:18Z</time>
      </trkpt>
      <trkpt lat="59.6483447" lon="18.1880265">
        <ele>11.1925</ele>
        <time>2011-10-23T16:26:22Z</time>
      </trkpt>
      <trkpt lat="59.6484645" lon="18.1887421">
        <ele>6.86646</ele>
        <time>2011-10-23T16:26:26Z</time>
      </trkpt>
      <trkpt lat="59.6484808" lon="18.1892257">
        <ele>3.50195</ele>
        <time>2011-10-23T16:26:28Z</time>
      </trkpt>
      <trkpt lat="59.648695" lon="18.190509">
        <ele>0</ele>
        <time>2011-10-23T16:26:33Z</time>
      </trkpt>
      <trkpt lat="59.6489922" lon="18.1916585">
        <ele>0</ele>
        <time>2011-10-23T16:26:38Z</time>
      </trkpt>
      <trkpt lat="59.6492663" lon="18.1926406">
        <ele>1.09863</ele>
        <time>2011-10-23T16:26:43Z</time>
      </trkpt>
      <trkpt lat="59.6494667" lon="18.1935719">
        <ele>1.57935</ele>
        <time>2011-10-23T16:26:48Z</time>
      </trkpt>
      <trkpt lat="59.6496988" lon="18.1947571">
        <ele>2.54065</ele>
        <time>2011-10-23T16:26:55Z</time>
      </trkpt>
      <trkpt lat="59.6499514" lon="18.1961422">
        <ele>3.50195</ele>
        <time>2011-10-23T16:27:04Z</time>
      </trkpt>
      <trkpt lat="59.6500884" lon="18.1969913">
        <ele>3.50195</ele>
        <time>2011-10-23T16:27:10Z</time>
      </trkpt>
      <trkpt lat="59.6502691" lon="18.1973777">
        <ele>3.50195</ele>
        <time>2011-10-23T16:27:14Z</time>
      </trkpt>
      <trkpt lat="59.6504868" lon="18.1973797">
        <ele>4.94385</ele>
        <time>2011-10-23T16:27:17Z</time>
      </trkpt>
      <trkpt lat="59.650972" lon="18.1971983">
        <ele>5.42456</ele>
        <time>2011-10-23T16:27:24Z</time>
      </trkpt>
      <trkpt lat="59.6513874" lon="18.1970892">
        <ele>6.38586</ele>
        <time>2011-10-23T16:27:30Z</time>
      </trkpt>
      <trkpt lat="59.6517273" lon="18.1970952">
        <ele>6.86646</ele>
        <time>2011-10-23T16:27:35Z</time>
      </trkpt>
      <trkpt lat="59.6521043" lon="18.1973475">
        <ele>9.2699</ele>
        <time>2011-10-23T16:27:41Z</time>
      </trkpt>
      <trkpt lat="59.652463" lon="18.1978434">
        <ele>9.2699</ele>
        <time>2011-10-23T16:27:47Z</time>
      </trkpt>
      <trkpt lat="59.6527711" lon="18.1983646">
        <ele>10.7118</ele>
        <time>2011-10-23T16:27:53Z</time>
      </trkpt>
      <trkpt lat="59.6529839" lon="18.1987416">
        <ele>11.6732</ele>
        <time>2011-10-23T16:27:58Z</time>
      </trkpt>
      <trkpt lat="59.6532942" lon="18.1990241">
        <ele>11.6732</ele>
        <time>2011-10-23T16:28:03Z</time>
      </trkpt>
      <trkpt lat="59.6536849" lon="18.1991326">
        <ele>10.7118</ele>
        <time>2011-10-23T16:28:09Z</time>
      </trkpt>
      <trkpt lat="59.6540024" lon="18.1991639">
        <ele>11.1925</ele>
        <time>2011-10-23T16:28:14Z</time>
      </trkpt>
      <trkpt lat="59.6543893" lon="18.1989767">
        <ele>11.1925</ele>
        <time>2011-10-23T16:28:20Z</time>
      </trkpt>
      <trkpt lat="59.6548012" lon="18.1988318">
        <ele>10.7118</ele>
        <time>2011-10-23T16:28:25Z</time>
      </trkpt>
      <trkpt lat="59.6553114" lon="18.1987007">
        <ele>11.6732</ele>
        <time>2011-10-23T16:28:31Z</time>
      </trkpt>
      <trkpt lat="59.655873" lon="18.1985588">
        <ele>14.557</ele>
        <time>2011-10-23T16:28:38Z</time>
      </trkpt>
      <trkpt lat="59.6562982" lon="18.1985943">
        <ele>14.0764</ele>
        <time>2011-10-23T16:28:43Z</time>
      </trkpt>
      <trkpt lat="59.656879" lon="18.1986898">
        <ele>11.1925</ele>
        <time>2011-10-23T16:28:49Z</time>
      </trkpt>
      <trkpt lat="59.6576856" lon="18.1988215">
        <ele>11.1925</ele>
        <time>2011-10-23T16:28:57Z</time>
      </trkpt>
      <trkpt lat="59.6582157" lon="18.1989048">
        <ele>13.1151</ele>
        <time>2011-10-23T16:29:03Z</time>
      </trkpt>
      <trkpt lat="59.658579" lon="18.1989528">
        <ele>16.9604</ele>
        <time>2011-10-23T16:29:08Z</time>
      </trkpt>
      <trkpt lat="59.658986" lon="18.1990031">
        <ele>20.325</ele>
        <time>2011-10-23T16:29:14Z</time>
      </trkpt>
      <trkpt lat="59.6594177" lon="18.1990639">
        <ele>21.2864</ele>
        <time>2011-10-23T16:29:20Z</time>
      </trkpt>
      <trkpt lat="59.660119" lon="18.1990668">
        <ele>19.3638</ele>
        <time>2011-10-23T16:29:29Z</time>
      </trkpt>
      <trkpt lat="59.6607966" lon="18.1991025">
        <ele>15.999</ele>
        <time>2011-10-23T16:29:36Z</time>
      </trkpt>
      <trkpt lat="59.6613251" lon="18.1991974">
        <ele>17.9218</ele>
        <time>2011-10-23T16:29:42Z</time>
      </trkpt>
      <trkpt lat="59.6617186" lon="18.1992045">
        <ele>20.8057</ele>
        <time>2011-10-23T16:29:48Z</time>
      </trkpt>
      <trkpt lat="59.6619455" lon="18.1991265">
        <ele>23.209</ele>
        <time>2011-10-23T16:29:52Z</time>
      </trkpt>
      <trkpt lat="59.6622107" lon="18.1987979">
        <ele>25.1317</ele>
        <time>2011-10-23T16:29:58Z</time>
      </trkpt>
      <trkpt lat="59.6625465" lon="18.1980961">
        <ele>25.1317</ele>
        <time>2011-10-23T16:30:07Z</time>
      </trkpt>
      <trkpt lat="59.662775" lon="18.1974925">
        <ele>27.0543</ele>
        <time>2011-10-23T16:30:14Z</time>
      </trkpt>
      <trkpt lat="59.6630759" lon="18.1967591">
        <ele>27.5349</ele>
        <time>2011-10-23T16:30:22Z</time>
      </trkpt>
      <trkpt lat="59.6633075" lon="18.1962764">
        <ele>27.5349</ele>
        <time>2011-10-23T16:30:27Z</time>
      </trkpt>
      <trkpt lat="59.6635861" lon="18.1959015">
        <ele>29.4575</ele>
        <time>2011-10-23T16:30:32Z</time>
      </trkpt>
      <trkpt lat="59.6637901" lon="18.1956771">
        <ele>31.8607</ele>
        <time>2011-10-23T16:30:36Z</time>
      </trkpt>
      <trkpt lat="59.6639913" lon="18.1954337">
        <ele>34.2642</ele>
        <time>2011-10-23T16:30:40Z</time>
      </trkpt>
      <trkpt lat="59.6641024" lon="18.1953472">
        <ele>34.7449</ele>
        <time>2011-10-23T16:30:42Z</time>
      </trkpt>
      <trkpt lat="59.6643433" lon="18.1952818">
        <ele>36.1868</ele>
        <time>2011-10-23T16:30:46Z</time>
      </trkpt>
      <trkpt lat="59.664475" lon="18.1953032">
        <ele>36.1868</ele>
        <time>2011-10-23T16:30:48Z</time>
      </trkpt>
      <trkpt lat="59.6646184" lon="18.1953656">
        <ele>36.1868</ele>
        <time>2011-10-23T16:30:50Z</time>
      </trkpt>
      <trkpt lat="59.6651225" lon="18.1957486">
        <ele>33.3029</ele>
        <time>2011-10-23T16:30:56Z</time>
      </trkpt>
      <trkpt lat="59.6654756" lon="18.1958963">
        <ele>33.3029</ele>
        <time>2011-10-23T16:31:00Z</time>
      </trkpt>
      <trkpt lat="59.6659296" lon="18.1958941">
        <ele>30.8995</ele>
        <time>2011-10-23T16:31:05Z</time>
      </trkpt>
      <trkpt lat="59.6664693" lon="18.1957013">
        <ele>29.4575</ele>
        <time>2011-10-23T16:31:11Z</time>
      </trkpt>
      <trkpt lat="59.6667989" lon="18.195714">
        <ele>29.9381</ele>
        <time>2011-10-23T16:31:15Z</time>
      </trkpt>
      <trkpt lat="59.6669593" lon="18.1957315">
        <ele>30.4188</ele>
        <time>2011-10-23T16:31:17Z</time>
      </trkpt>
      <trkpt lat="59.6674017" lon="18.1956377">
        <ele>28.9769</ele>
        <time>2011-10-23T16:31:22Z</time>
      </trkpt>
      <trkpt lat="59.6678382" lon="18.1956541">
        <ele>26.0929</ele>
        <time>2011-10-23T16:31:26Z</time>
      </trkpt>
      <trkpt lat="59.668529" lon="18.1956329">
        <ele>18.8831</ele>
        <time>2011-10-23T16:31:31Z</time>
      </trkpt>
      <trkpt lat="59.6694047" lon="18.1958948">
        <ele>11.6732</ele>
        <time>2011-10-23T16:31:37Z</time>
      </trkpt>
      <trkpt lat="59.6700644" lon="18.1960442">
        <ele>9.75061</ele>
        <time>2011-10-23T16:31:42Z</time>
      </trkpt>
      <trkpt lat="59.6705518" lon="18.195978">
        <ele>9.2699</ele>
        <time>2011-10-23T16:31:46Z</time>
      </trkpt>
      <trkpt lat="59.6709583" lon="18.1957692">
        <ele>9.75061</ele>
        <time>2011-10-23T16:31:50Z</time>
      </trkpt>
      <trkpt lat="59.6714655" lon="18.1954325">
        <ele>11.6732</ele>
        <time>2011-10-23T16:31:56Z</time>
      </trkpt>
      <trkpt lat="59.6718897" lon="18.1951268">
        <ele>14.0764</ele>
        <time>2011-10-23T16:32:02Z</time>
      </trkpt>
      <trkpt lat="59.6722881" lon="18.1949141">
        <ele>16.9604</ele>
        <time>2011-10-23T16:32:09Z</time>
      </trkpt>
      <trkpt lat="59.6724884" lon="18.1950356">
        <ele>19.8444</ele>
        <time>2011-10-23T16:32:14Z</time>
      </trkpt>
      <trkpt lat="59.6725219" lon="18.1951067">
        <ele>20.325</ele>
        <time>2011-10-23T16:32:15Z</time>
      </trkpt>
      <trkpt lat="59.6726443" lon="18.1954068">
        <ele>20.8057</ele>
        <time>2011-10-23T16:32:19Z</time>
      </trkpt>
      <trkpt lat="59.6726788" lon="18.1954721">
        <ele>21.2864</ele>
        <time>2011-10-23T16:32:20Z</time>
      </trkpt>
      <trkpt lat="59.6729065" lon="18.1958541">
        <ele>22.7283</ele>
        <time>2011-10-23T16:32:26Z</time>
      </trkpt>
      <trkpt lat="59.6731911" lon="18.196321">
        <ele>23.209</ele>
        <time>2011-10-23T16:32:33Z</time>
      </trkpt>
      <trkpt lat="59.673379" lon="18.1966582">
        <ele>23.6896</ele>
        <time>2011-10-23T16:32:38Z</time>
      </trkpt>
      <trkpt lat="59.6734821" lon="18.1969017">
        <ele>23.209</ele>
        <time>2011-10-23T16:32:41Z</time>
      </trkpt>
      <trkpt lat="59.6736806" lon="18.1975771">
        <ele>23.6896</ele>
        <time>2011-10-23T16:32:48Z</time>
      </trkpt>
      <trkpt lat="59.6738558" lon="18.1982344">
        <ele>22.7283</ele>
        <time>2011-10-23T16:32:54Z</time>
      </trkpt>
      <trkpt lat="59.6738935" lon="18.1983444">
        <ele>22.7283</ele>
        <time>2011-10-23T16:32:55Z</time>
      </trkpt>
      <trkpt lat="59.6741324" lon="18.1987711">
        <ele>22.2476</ele>
        <time>2011-10-23T16:33:00Z</time>
      </trkpt>
      <trkpt lat="59.6743983" lon="18.1989986">
        <ele>21.767</ele>
        <time>2011-10-23T16:33:05Z</time>
      </trkpt>
      <trkpt lat="59.6746861" lon="18.1989732">
        <ele>24.651</ele>
        <time>2011-10-23T16:33:10Z</time>
      </trkpt>
      <trkpt lat="59.6748154" lon="18.1989113">
        <ele>25.6123</ele>
        <time>2011-10-23T16:33:12Z</time>
      </trkpt>
      <trkpt lat="59.6749958" lon="18.1987733">
        <ele>26.0929</ele>
        <time>2011-10-23T16:33:15Z</time>
      </trkpt>
      <trkpt lat="59.6754795" lon="18.198463">
        <ele>28.9769</ele>
        <time>2011-10-23T16:33:23Z</time>
      </trkpt>
      <trkpt lat="59.6759381" lon="18.1980423">
        <ele>30.4188</ele>
        <time>2011-10-23T16:33:31Z</time>
      </trkpt>
      <trkpt lat="59.6762279" lon="18.1978834">
        <ele>32.3416</ele>
        <time>2011-10-23T16:33:36Z</time>
      </trkpt>
      <trkpt lat="59.6766021" lon="18.1977363">
        <ele>33.3029</ele>
        <time>2011-10-23T16:33:42Z</time>
      </trkpt>
      <trkpt lat="59.6770163" lon="18.197775">
        <ele>35.7061</ele>
        <time>2011-10-23T16:33:49Z</time>
      </trkpt>
      <trkpt lat="59.677379" lon="18.1979013">
        <ele>36.6675</ele>
        <time>2011-10-23T16:33:55Z</time>
      </trkpt>
      <trkpt lat="59.6774979" lon="18.1979433">
        <ele>37.1481</ele>
        <time>2011-10-23T16:33:57Z</time>
      </trkpt>
      <trkpt lat="59.6778964" lon="18.1979025">
        <ele>37.1481</ele>
        <time>2011-10-23T16:34:03Z</time>
      </trkpt>
      <trkpt lat="59.6782915" lon="18.1977327">
        <ele>38.5901</ele>
        <time>2011-10-23T16:34:09Z</time>
      </trkpt>
      <trkpt lat="59.678614" lon="18.1976076">
        <ele>37.1481</ele>
        <time>2011-10-23T16:34:13Z</time>
      </trkpt>
      <trkpt lat="59.6788129" lon="18.1975818">
        <ele>35.7061</ele>
        <time>2011-10-23T16:34:15Z</time>
      </trkpt>
      <trkpt lat="59.6793439" lon="18.1977709">
        <ele>31.8607</ele>
        <time>2011-10-23T16:34:20Z</time>
      </trkpt>
      <trkpt lat="59.680007" lon="18.1982738">
        <ele>25.1317</ele>
        <time>2011-10-23T16:34:26Z</time>
      </trkpt>
      <trkpt lat="59.6806431" lon="18.198759">
        <ele>20.8057</ele>
        <time>2011-10-23T16:34:32Z</time>
      </trkpt>
      <trkpt lat="59.6809773" lon="18.1990616">
        <ele>21.2864</ele>
        <time>2011-10-23T16:34:36Z</time>
      </trkpt>
      <trkpt lat="59.6811732" lon="18.1992111">
        <ele>22.2476</ele>
        <time>2011-10-23T16:34:39Z</time>
      </trkpt>
      <trkpt lat="59.6814809" lon="18.1992989">
        <ele>24.1703</ele>
        <time>2011-10-23T16:34:43Z</time>
      </trkpt>
      <trkpt lat="59.6818154" lon="18.1990437">
        <ele>20.8057</ele>
        <time>2011-10-23T16:34:47Z</time>
      </trkpt>
      <trkpt lat="59.6823417" lon="18.1984433">
        <ele>20.325</ele>
        <time>2011-10-23T16:34:53Z</time>
      </trkpt>
      <trkpt lat="59.6827047" lon="18.1980107">
        <ele>21.2864</ele>
        <time>2011-10-23T16:34:58Z</time>
      </trkpt>
      <trkpt lat="59.6829058" lon="18.1977957">
        <ele>21.767</ele>
        <time>2011-10-23T16:35:01Z</time>
      </trkpt>
      <trkpt lat="59.6832055" lon="18.1973383">
        <ele>20.325</ele>
        <time>2011-10-23T16:35:05Z</time>
      </trkpt>
      <trkpt lat="59.6836765" lon="18.1969699">
        <ele>19.3638</ele>
        <time>2011-10-23T16:35:10Z</time>
      </trkpt>
      <trkpt lat="59.6841158" lon="18.1966349">
        <ele>18.8831</ele>
        <time>2011-10-23T16:35:15Z</time>
      </trkpt>
      <trkpt lat="59.6845516" lon="18.1961469">
        <ele>18.4023</ele>
        <time>2011-10-23T16:35:21Z</time>
      </trkpt>
      <trkpt lat="59.6849379" lon="18.1956661">
        <ele>18.4023</ele>
        <time>2011-10-23T16:35:26Z</time>
      </trkpt>
      <trkpt lat="59.685345" lon="18.1951224">
        <ele>20.325</ele>
        <time>2011-10-23T16:35:32Z</time>
      </trkpt>
      <trkpt lat="59.6854429" lon="18.1949425">
        <ele>21.2864</ele>
        <time>2011-10-23T16:35:34Z</time>
      </trkpt>
      <trkpt lat="59.6855581" lon="18.1945187">
        <ele>23.209</ele>
        <time>2011-10-23T16:35:38Z</time>
      </trkpt>
      <trkpt lat="59.6856801" lon="18.1939386">
        <ele>23.6896</ele>
        <time>2011-10-23T16:35:43Z</time>
      </trkpt>
      <trkpt lat="59.6857948" lon="18.1935858">
        <ele>22.7283</ele>
        <time>2011-10-23T16:35:46Z</time>
      </trkpt>
      <trkpt lat="59.6858884" lon="18.1928809">
        <ele>22.2476</ele>
        <time>2011-10-23T16:35:51Z</time>
      </trkpt>
      <trkpt lat="59.6859036" lon="18.19261">
        <ele>22.2476</ele>
        <time>2011-10-23T16:35:53Z</time>
      </trkpt>
      <trkpt lat="59.6860558" lon="18.1919288">
        <ele>21.2864</ele>
        <time>2011-10-23T16:35:58Z</time>
      </trkpt>
      <trkpt lat="59.686161" lon="18.1916885">
        <ele>20.8057</ele>
        <time>2011-10-23T16:36:00Z</time>
      </trkpt>
      <trkpt lat="59.6864121" lon="18.1912142">
        <ele>17.9218</ele>
        <time>2011-10-23T16:36:04Z</time>
      </trkpt>
      <trkpt lat="59.6867639" lon="18.1908285">
        <ele>15.0377</ele>
        <time>2011-10-23T16:36:08Z</time>
      </trkpt>
      <trkpt lat="59.6872779" lon="18.1904229">
        <ele>13.1151</ele>
        <time>2011-10-23T16:36:13Z</time>
      </trkpt>
      <trkpt lat="59.6877298" lon="18.1897432">
        <ele>12.1538</ele>
        <time>2011-10-23T16:36:18Z</time>
      </trkpt>
      <trkpt lat="59.6878854" lon="18.1894515">
        <ele>11.6732</ele>
        <time>2011-10-23T16:36:20Z</time>
      </trkpt>
      <trkpt lat="59.6882214" lon="18.1891418">
        <ele>10.2312</ele>
        <time>2011-10-23T16:36:24Z</time>
      </trkpt>
      <trkpt lat="59.6883528" lon="18.1892729">
        <ele>8.78918</ele>
        <time>2011-10-23T16:36:26Z</time>
      </trkpt>
      <trkpt lat="59.6884205" lon="18.1893797">
        <ele>7.82788</ele>
        <time>2011-10-23T16:36:27Z</time>
      </trkpt>
      <trkpt lat="59.6886377" lon="18.1897665">
        <ele>6.38586</ele>
        <time>2011-10-23T16:36:30Z</time>
      </trkpt>
      <trkpt lat="59.6888531" lon="18.1904327">
        <ele>3.50195</ele>
        <time>2011-10-23T16:36:34Z</time>
      </trkpt>
      <trkpt lat="59.6891924" lon="18.1908346">
        <ele>0.137451</ele>
        <time>2011-10-23T16:36:38Z</time>
      </trkpt>
      <trkpt lat="59.6894058" lon="18.1908335">
        <ele>0</ele>
        <time>2011-10-23T16:36:40Z</time>
      </trkpt>
      <trkpt lat="59.6903387" lon="18.190615">
        <ele>0.618042</ele>
        <time>2011-10-23T16:36:49Z</time>
      </trkpt>
      <trkpt lat="59.6912024" lon="18.1903683">
        <ele>3.02124</ele>
        <time>2011-10-23T16:36:58Z</time>
      </trkpt>
      <trkpt lat="59.6916155" lon="18.1900715">
        <ele>4.46326</ele>
        <time>2011-10-23T16:37:03Z</time>
      </trkpt>
      <trkpt lat="59.6920455" lon="18.1897752">
        <ele>6.86646</ele>
        <time>2011-10-23T16:37:09Z</time>
      </trkpt>
      <trkpt lat="59.6923585" lon="18.18958">
        <ele>8.78918</ele>
        <time>2011-10-23T16:37:14Z</time>
      </trkpt>
      <trkpt lat="59.6926404" lon="18.1893053">
        <ele>10.2312</ele>
        <time>2011-10-23T16:37:19Z</time>
      </trkpt>
      <trkpt lat="59.6928977" lon="18.1889184">
        <ele>12.6344</ele>
        <time>2011-10-23T16:37:25Z</time>
      </trkpt>
      <trkpt lat="59.6929996" lon="18.1887503">
        <ele>14.557</ele>
        <time>2011-10-23T16:37:28Z</time>
      </trkpt>
      <trkpt lat="59.6930496" lon="18.1886263">
        <ele>15.0377</ele>
        <time>2011-10-23T16:37:30Z</time>
      </trkpt>
      <trkpt lat="59.6931567" lon="18.1883172">
        <ele>16.9604</ele>
        <time>2011-10-23T16:37:35Z</time>
      </trkpt>
      <trkpt lat="59.6932712" lon="18.1879591">
        <ele>16.9604</ele>
        <time>2011-10-23T16:37:40Z</time>
      </trkpt>
      <trkpt lat="59.6935624" lon="18.1872619">
        <ele>14.557</ele>
        <time>2011-10-23T16:37:48Z</time>
      </trkpt>
      <trkpt lat="59.6935992" lon="18.1871595">
        <ele>13.5958</ele>
        <time>2011-10-23T16:37:49Z</time>
      </trkpt>
      <trkpt lat="59.6938545" lon="18.1867651">
        <ele>11.1925</ele>
        <time>2011-10-23T16:37:53Z</time>
      </trkpt>
      <trkpt lat="59.6943082" lon="18.186344">
        <ele>8.30859</ele>
        <time>2011-10-23T16:37:58Z</time>
      </trkpt>
      <trkpt lat="59.6948589" lon="18.1859658">
        <ele>6.38586</ele>
        <time>2011-10-23T16:38:03Z</time>
      </trkpt>
      <trkpt lat="59.6951811" lon="18.1857426">
        <ele>7.34717</ele>
        <time>2011-10-23T16:38:06Z</time>
      </trkpt>
      <trkpt lat="59.6954852" lon="18.1852365">
        <ele>8.78918</ele>
        <time>2011-10-23T16:38:10Z</time>
      </trkpt>
      <trkpt lat="59.6956586" lon="18.184717">
        <ele>11.1925</ele>
        <time>2011-10-23T16:38:14Z</time>
      </trkpt>
      <trkpt lat="59.6957401" lon="18.1844386">
        <ele>12.6344</ele>
        <time>2011-10-23T16:38:17Z</time>
      </trkpt>
      <trkpt lat="59.6958111" lon="18.1842188">
        <ele>13.1151</ele>
        <time>2011-10-23T16:38:20Z</time>
      </trkpt>
      <trkpt lat="59.6959286" lon="18.1840163">
        <ele>14.557</ele>
        <time>2011-10-23T16:38:24Z</time>
      </trkpt>
      <trkpt lat="59.6962088" lon="18.1838794">
        <ele>15.0377</ele>
        <time>2011-10-23T16:38:30Z</time>
      </trkpt>
      <trkpt lat="59.6965454" lon="18.1837705">
        <ele>15.5184</ele>
        <time>2011-10-23T16:38:35Z</time>
      </trkpt>
      <trkpt lat="59.6967544" lon="18.183608">
        <ele>15.0377</ele>
        <time>2011-10-23T16:38:38Z</time>
      </trkpt>
      <trkpt lat="59.6973267" lon="18.1830036">
        <ele>13.1151</ele>
        <time>2011-10-23T16:38:46Z</time>
      </trkpt>
      <trkpt lat="59.6978012" lon="18.1825849">
        <ele>12.1538</ele>
        <time>2011-10-23T16:38:52Z</time>
      </trkpt>
      <trkpt lat="59.6978866" lon="18.1825234">
        <ele>11.6732</ele>
        <time>2011-10-23T16:38:53Z</time>
      </trkpt>
      <trkpt lat="59.698156" lon="18.1820858">
        <ele>11.6732</ele>
        <time>2011-10-23T16:38:57Z</time>
      </trkpt>
      <trkpt lat="59.698257" lon="18.1816333">
        <ele>12.1538</ele>
        <time>2011-10-23T16:39:00Z</time>
      </trkpt>
      <trkpt lat="59.6982719" lon="18.1813146">
        <ele>13.5958</ele>
        <time>2011-10-23T16:39:02Z</time>
      </trkpt>
      <trkpt lat="59.6982547" lon="18.1803629">
        <ele>14.557</ele>
        <time>2011-10-23T16:39:08Z</time>
      </trkpt>
      <trkpt lat="59.6983497" lon="18.1791458">
        <ele>15.5184</ele>
        <time>2011-10-23T16:39:16Z</time>
      </trkpt>
      <trkpt lat="59.6983413" lon="18.1780647">
        <ele>15.0377</ele>
        <time>2011-10-23T16:39:23Z</time>
      </trkpt>
      <trkpt lat="59.6983692" lon="18.1773469">
        <ele>15.0377</ele>
        <time>2011-10-23T16:39:28Z</time>
      </trkpt>
      <trkpt lat="59.6984533" lon="18.1764966">
        <ele>16.4797</ele>
        <time>2011-10-23T16:39:35Z</time>
      </trkpt>
      <trkpt lat="59.6984896" lon="18.1756494">
        <ele>15.999</ele>
        <time>2011-10-23T16:39:42Z</time>
      </trkpt>
      <trkpt lat="59.6985238" lon="18.1748472">
        <ele>16.4797</ele>
        <time>2011-10-23T16:39:48Z</time>
      </trkpt>
      <trkpt lat="59.6984725" lon="18.1738512">
        <ele>15.5184</ele>
        <time>2011-10-23T16:39:55Z</time>
      </trkpt>
      <trkpt lat="59.6984029" lon="18.1731277">
        <ele>16.4797</ele>
        <time>2011-10-23T16:40:00Z</time>
      </trkpt>
      <trkpt lat="59.6984103" lon="18.1723764">
        <ele>14.557</ele>
        <time>2011-10-23T16:40:05Z</time>
      </trkpt>
      <trkpt lat="59.6984306" lon="18.1722263">
        <ele>14.0764</ele>
        <time>2011-10-23T16:40:06Z</time>
      </trkpt>
      <trkpt lat="59.6985873" lon="18.171039">
        <ele>14.557</ele>
        <time>2011-10-23T16:40:14Z</time>
      </trkpt>
      <trkpt lat="59.6986374" lon="18.169835">
        <ele>15.5184</ele>
        <time>2011-10-23T16:40:22Z</time>
      </trkpt>
      <trkpt lat="59.6986103" lon="18.1692586">
        <ele>15.999</ele>
        <time>2011-10-23T16:40:26Z</time>
      </trkpt>
      <trkpt lat="59.6984351" lon="18.1682666">
        <ele>17.4412</ele>
        <time>2011-10-23T16:40:33Z</time>
      </trkpt>
      <trkpt lat="59.6981584" lon="18.167314">
        <ele>15.5184</ele>
        <time>2011-10-23T16:40:40Z</time>
      </trkpt>
      <trkpt lat="59.6979382" lon="18.1666649">
        <ele>13.5958</ele>
        <time>2011-10-23T16:40:45Z</time>
      </trkpt>
      <trkpt lat="59.6976622" lon="18.1659816">
        <ele>14.0764</ele>
        <time>2011-10-23T16:40:51Z</time>
      </trkpt>
      <trkpt lat="59.6974551" lon="18.1653078">
        <ele>16.4797</ele>
        <time>2011-10-23T16:40:57Z</time>
      </trkpt>
      <trkpt lat="59.6971775" lon="18.1646296">
        <ele>18.4023</ele>
        <time>2011-10-23T16:41:04Z</time>
      </trkpt>
      <trkpt lat="59.6969321" lon="18.1640441">
        <ele>18.4023</ele>
        <time>2011-10-23T16:41:10Z</time>
      </trkpt>
      <trkpt lat="59.6967776" lon="18.1633502">
        <ele>17.4412</ele>
        <time>2011-10-23T16:41:15Z</time>
      </trkpt>
      <trkpt lat="59.6965865" lon="18.1626684">
        <ele>16.4797</ele>
        <time>2011-10-23T16:41:20Z</time>
      </trkpt>
      <trkpt lat="59.6964783" lon="18.1620318">
        <ele>15.0377</ele>
        <time>2011-10-23T16:41:24Z</time>
      </trkpt>
      <trkpt lat="59.6964766" lon="18.1618672">
        <ele>15.0377</ele>
        <time>2011-10-23T16:41:25Z</time>
      </trkpt>
      <trkpt lat="59.6964973" lon="18.1611392">
        <ele>15.5184</ele>
        <time>2011-10-23T16:41:30Z</time>
      </trkpt>
      <trkpt lat="59.6964044" lon="18.160369">
        <ele>17.4412</ele>
        <time>2011-10-23T16:41:36Z</time>
      </trkpt>
      <trkpt lat="59.6961823" lon="18.159477">
        <ele>16.9604</ele>
        <time>2011-10-23T16:41:43Z</time>
      </trkpt>
      <trkpt lat="59.6958664" lon="18.158847">
        <ele>15.999</ele>
        <time>2011-10-23T16:41:49Z</time>
      </trkpt>
      <trkpt lat="59.6956675" lon="18.1585969">
        <ele>14.0764</ele>
        <time>2011-10-23T16:41:52Z</time>
      </trkpt>
      <trkpt lat="59.6954813" lon="18.1581458">
        <ele>14.0764</ele>
        <time>2011-10-23T16:41:56Z</time>
      </trkpt>
      <trkpt lat="59.6954675" lon="18.158013">
        <ele>14.557</ele>
        <time>2011-10-23T16:41:57Z</time>
      </trkpt>
      <trkpt lat="59.6954119" lon="18.1572412">
        <ele>13.5958</ele>
        <time>2011-10-23T16:42:03Z</time>
      </trkpt>
      <trkpt lat="59.69528" lon="18.1564425">
        <ele>15.0377</ele>
        <time>2011-10-23T16:42:09Z</time>
      </trkpt>
      <trkpt lat="59.6952899" lon="18.1558348">
        <ele>15.0377</ele>
        <time>2011-10-23T16:42:13Z</time>
      </trkpt>
      <trkpt lat="59.6954226" lon="18.1554558">
        <ele>15.5184</ele>
        <time>2011-10-23T16:42:16Z</time>
      </trkpt>
      <trkpt lat="59.6956218" lon="18.1550277">
        <ele>16.9604</ele>
        <time>2011-10-23T16:42:20Z</time>
      </trkpt>
      <trkpt lat="59.6957035" lon="18.1547906">
        <ele>17.9218</ele>
        <time>2011-10-23T16:42:22Z</time>
      </trkpt>
      <trkpt lat="59.6958074" lon="18.1542678">
        <ele>18.8831</ele>
        <time>2011-10-23T16:42:26Z</time>
      </trkpt>
      <trkpt lat="59.6958372" lon="18.1536944">
        <ele>19.3638</ele>
        <time>2011-10-23T16:42:30Z</time>
      </trkpt>
      <trkpt lat="59.6957581" lon="18.1525133">
        <ele>21.767</ele>
        <time>2011-10-23T16:42:38Z</time>
      </trkpt>
      <trkpt lat="59.695708" lon="18.1515571">
        <ele>21.2864</ele>
        <time>2011-10-23T16:42:44Z</time>
      </trkpt>
      <trkpt lat="59.6955937" lon="18.150981">
        <ele>21.767</ele>
        <time>2011-10-23T16:42:48Z</time>
      </trkpt>
      <trkpt lat="59.6951977" lon="18.1497104">
        <ele>19.8444</ele>
        <time>2011-10-23T16:42:58Z</time>
      </trkpt>
      <trkpt lat="59.6949946" lon="18.1488908">
        <ele>18.4023</ele>
        <time>2011-10-23T16:43:04Z</time>
      </trkpt>
      <trkpt lat="59.6948589" lon="18.1484584">
        <ele>17.4412</ele>
        <time>2011-10-23T16:43:07Z</time>
      </trkpt>
      <trkpt lat="59.6946703" lon="18.1472877">
        <ele>15.999</ele>
        <time>2011-10-23T16:43:14Z</time>
      </trkpt>
      <trkpt lat="59.6944118" lon="18.1458034">
        <ele>13.1151</ele>
        <time>2011-10-23T16:43:22Z</time>
      </trkpt>
      <trkpt lat="59.6942107" lon="18.1449114">
        <ele>12.1538</ele>
        <time>2011-10-23T16:43:27Z</time>
      </trkpt>
      <trkpt lat="59.6941553" lon="18.1441661">
        <ele>10.7118</ele>
        <time>2011-10-23T16:43:31Z</time>
      </trkpt>
      <trkpt lat="59.6942502" lon="18.1436476">
        <ele>11.1925</ele>
        <time>2011-10-23T16:43:34Z</time>
      </trkpt>
      <trkpt lat="59.6944728" lon="18.143127">
        <ele>13.1151</ele>
        <time>2011-10-23T16:43:38Z</time>
      </trkpt>
      <trkpt lat="59.6945938" lon="18.1429702">
        <ele>14.557</ele>
        <time>2011-10-23T16:43:40Z</time>
      </trkpt>
      <trkpt lat="59.6948905" lon="18.1427414">
        <ele>17.9218</ele>
        <time>2011-10-23T16:43:45Z</time>
      </trkpt>
      <trkpt lat="59.6951403" lon="18.1423819">
        <ele>19.3638</ele>
        <time>2011-10-23T16:43:50Z</time>
      </trkpt>
      <trkpt lat="59.6954489" lon="18.1416099">
        <ele>22.7283</ele>
        <time>2011-10-23T16:43:58Z</time>
      </trkpt>
      <trkpt lat="59.69565" lon="18.1409695">
        <ele>22.7283</ele>
        <time>2011-10-23T16:44:04Z</time>
      </trkpt>
      <trkpt lat="59.6956854" lon="18.1408513">
        <ele>22.7283</ele>
        <time>2011-10-23T16:44:05Z</time>
      </trkpt>
      <trkpt lat="59.6958404" lon="18.1402117">
        <ele>21.767</ele>
        <time>2011-10-23T16:44:10Z</time>
      </trkpt>
      <trkpt lat="59.6960824" lon="18.1393761">
        <ele>20.8057</ele>
        <time>2011-10-23T16:44:16Z</time>
      </trkpt>
      <trkpt lat="59.6964067" lon="18.1386147">
        <ele>21.2864</ele>
        <time>2011-10-23T16:44:22Z</time>
      </trkpt>
      <trkpt lat="59.6967365" lon="18.1377575">
        <ele>23.209</ele>
        <time>2011-10-23T16:44:29Z</time>
      </trkpt>
      <trkpt lat="59.6968603" lon="18.137199">
        <ele>23.209</ele>
        <time>2011-10-23T16:44:33Z</time>
      </trkpt>
      <trkpt lat="59.6968768" lon="18.1370507">
        <ele>23.209</ele>
        <time>2011-10-23T16:44:34Z</time>
      </trkpt>
      <trkpt lat="59.6969055" lon="18.1364287">
        <ele>22.2476</ele>
        <time>2011-10-23T16:44:38Z</time>
      </trkpt>
      <trkpt lat="59.6970765" lon="18.1356055">
        <ele>20.325</ele>
        <time>2011-10-23T16:44:43Z</time>
      </trkpt>
      <trkpt lat="59.6974583" lon="18.1347522">
        <ele>17.9218</ele>
        <time>2011-10-23T16:44:49Z</time>
      </trkpt>
      <trkpt lat="59.6978789" lon="18.1338403">
        <ele>16.4797</ele>
        <time>2011-10-23T16:44:55Z</time>
      </trkpt>
      <trkpt lat="59.6983635" lon="18.1329982">
        <ele>15.0377</ele>
        <time>2011-10-23T16:45:01Z</time>
      </trkpt>
      <trkpt lat="59.6989826" lon="18.1322585">
        <ele>15.0377</ele>
        <time>2011-10-23T16:45:08Z</time>
      </trkpt>
      <trkpt lat="59.6991646" lon="18.1320701">
        <ele>15.0377</ele>
        <time>2011-10-23T16:45:10Z</time>
      </trkpt>
      <trkpt lat="59.6994876" lon="18.1315289">
        <ele>14.0764</ele>
        <time>2011-10-23T16:45:14Z</time>
      </trkpt>
      <trkpt lat="59.6996282" lon="18.1309842">
        <ele>13.5958</ele>
        <time>2011-10-23T16:45:17Z</time>
      </trkpt>
      <trkpt lat="59.6996902" lon="18.1302057">
        <ele>11.1925</ele>
        <time>2011-10-23T16:45:21Z</time>
      </trkpt>
      <trkpt lat="59.6996829" lon="18.1296013">
        <ele>9.2699</ele>
        <time>2011-10-23T16:45:24Z</time>
      </trkpt>
      <trkpt lat="59.6998127" lon="18.1288036">
        <ele>5.42456</ele>
        <time>2011-10-23T16:45:28Z</time>
      </trkpt>
      <trkpt lat="59.6998912" lon="18.1286377">
        <ele>4.94385</ele>
        <time>2011-10-23T16:45:29Z</time>
      </trkpt>
      <trkpt lat="59.7000581" lon="18.1282979">
        <ele>4.46326</ele>
        <time>2011-10-23T16:45:31Z</time>
      </trkpt>
      <trkpt lat="59.7003669" lon="18.127268">
        <ele>1.57935</ele>
        <time>2011-10-23T16:45:36Z</time>
      </trkpt>
      <trkpt lat="59.7004254" lon="18.1263947">
        <ele>0.618042</ele>
        <time>2011-10-23T16:45:40Z</time>
      </trkpt>
      <trkpt lat="59.7004007" lon="18.1261846">
        <ele>0.137451</ele>
        <time>2011-10-23T16:45:41Z</time>
      </trkpt>
      <trkpt lat="59.700131" lon="18.12458">
        <ele>0</ele>
        <time>2011-10-23T16:45:49Z</time>
      </trkpt>
      <trkpt lat="59.7000131" lon="18.1238451">
        <ele>0</ele>
        <time>2011-10-23T16:45:53Z</time>
      </trkpt>
      <trkpt lat="59.6997883" lon="18.1232394">
        <ele>0</ele>
        <time>2011-10-23T16:45:57Z</time>
      </trkpt>
      <trkpt lat="59.6991154" lon="18.1221594">
        <ele>0</ele>
        <time>2011-10-23T16:46:06Z</time>
      </trkpt>
      <trkpt lat="59.6990486" lon="18.1220467">
        <ele>0</ele>
        <time>2011-10-23T16:46:07Z</time>
      </trkpt>
      <trkpt lat="59.6989054" lon="18.1214752">
        <ele>0</ele>
        <time>2011-10-23T16:46:11Z</time>
      </trkpt>
      <trkpt lat="59.698971" lon="18.1211798">
        <ele>0</ele>
        <time>2011-10-23T16:46:13Z</time>
      </trkpt>
      <trkpt lat="59.6993323" lon="18.1200267">
        <ele>0</ele>
        <time>2011-10-23T16:46:21Z</time>
      </trkpt>
      <trkpt lat="59.6993743" lon="18.119874">
        <ele>0</ele>
        <time>2011-10-23T16:46:22Z</time>
      </trkpt>
      <trkpt lat="59.6994395" lon="18.1192241">
        <ele>0</ele>
        <time>2011-10-23T16:46:26Z</time>
      </trkpt>
      <trkpt lat="59.6994912" lon="18.1184205">
        <ele>0</ele>
        <time>2011-10-23T16:46:31Z</time>
      </trkpt>
      <trkpt lat="59.6996303" lon="18.1170866">
        <ele>0</ele>
        <time>2011-10-23T16:46:40Z</time>
      </trkpt>
      <trkpt lat="59.6996702" lon="18.116579">
        <ele>0</ele>
        <time>2011-10-23T16:46:44Z</time>
      </trkpt>
      <trkpt lat="59.6996266" lon="18.1161491">
        <ele>0</ele>
        <time>2011-10-23T16:46:48Z</time>
      </trkpt>
      <trkpt lat="59.6994592" lon="18.115936">
        <ele>0</ele>
        <time>2011-10-23T16:46:51Z</time>
      </trkpt>
      <trkpt lat="59.6993851" lon="18.1159066">
        <ele>0</ele>
        <time>2011-10-23T16:46:52Z</time>
      </trkpt>
      <trkpt lat="59.6987481" lon="18.1158145">
        <ele>0</ele>
        <time>2011-10-23T16:47:00Z</time>
      </trkpt>
      <trkpt lat="59.6978955" lon="18.1158393">
        <ele>0</ele>
        <time>2011-10-23T16:47:11Z</time>
      </trkpt>
      <trkpt lat="59.6973117" lon="18.1158817">
        <ele>0</ele>
        <time>2011-10-23T16:47:19Z</time>
      </trkpt>
      <trkpt lat="59.6967636" lon="18.1159051">
        <ele>0</ele>
        <time>2011-10-23T16:47:27Z</time>
      </trkpt>
      <trkpt lat="59.6965109" lon="18.1156993">
        <ele>0</ele>
        <time>2011-10-23T16:47:31Z</time>
      </trkpt>
      <trkpt lat="59.6964553" lon="18.1156062">
        <ele>0</ele>
        <time>2011-10-23T16:47:32Z</time>
      </trkpt>
      <trkpt lat="59.6961244" lon="18.1148318">
        <ele>0</ele>
        <time>2011-10-23T16:47:39Z</time>
      </trkpt>
      <trkpt lat="59.6957861" lon="18.1139575">
        <ele>2.06006</ele>
        <time>2011-10-23T16:47:47Z</time>
      </trkpt>
      <trkpt lat="59.695509" lon="18.1133694">
        <ele>2.54065</ele>
        <time>2011-10-23T16:47:53Z</time>
      </trkpt>
      <trkpt lat="59.695281" lon="18.1126006">
        <ele>3.98267</ele>
        <time>2011-10-23T16:48:00Z</time>
      </trkpt>
      <trkpt lat="59.6952439" lon="18.1123874">
        <ele>4.46326</ele>
        <time>2011-10-23T16:48:02Z</time>
      </trkpt>
      <trkpt lat="59.6952037" lon="18.111704">
        <ele>7.34717</ele>
        <time>2011-10-23T16:48:09Z</time>
      </trkpt>
      <trkpt lat="59.6951032" lon="18.1110787">
        <ele>5.90527</ele>
        <time>2011-10-23T16:48:16Z</time>
      </trkpt>
      <trkpt lat="59.69486" lon="18.110286">
        <ele>6.38586</ele>
        <time>2011-10-23T16:48:24Z</time>
      </trkpt>
      <trkpt lat="59.6948164" lon="18.1101925">
        <ele>6.38586</ele>
        <time>2011-10-23T16:48:25Z</time>
      </trkpt>
      <trkpt lat="59.6945326" lon="18.1098041">
        <ele>4.46326</ele>
        <time>2011-10-23T16:48:30Z</time>
      </trkpt>
      <trkpt lat="59.6943999" lon="18.1097113">
        <ele>3.98267</ele>
        <time>2011-10-23T16:48:32Z</time>
      </trkpt>
      <trkpt lat="59.6938932" lon="18.1094941">
        <ele>3.50195</ele>
        <time>2011-10-23T16:48:40Z</time>
      </trkpt>
      <trkpt lat="59.6936742" lon="18.1092936">
        <ele>4.94385</ele>
        <time>2011-10-23T16:48:44Z</time>
      </trkpt>
      <trkpt lat="59.6935141" lon="18.1090186">
        <ele>6.38586</ele>
        <time>2011-10-23T16:48:48Z</time>
      </trkpt>
      <trkpt lat="59.6933562" lon="18.1084908">
        <ele>11.1925</ele>
        <time>2011-10-23T16:48:55Z</time>
      </trkpt>
      <trkpt lat="59.6931803" lon="18.1081966">
        <ele>13.1151</ele>
        <time>2011-10-23T16:49:00Z</time>
      </trkpt>
      <trkpt lat="59.6929146" lon="18.1082073">
        <ele>14.0764</ele>
        <time>2011-10-23T16:49:05Z</time>
      </trkpt>
      <trkpt lat="59.6926392" lon="18.1080583">
        <ele>14.557</ele>
        <time>2011-10-23T16:49:09Z</time>
      </trkpt>
      <trkpt lat="59.692467" lon="18.1077069">
        <ele>14.557</ele>
        <time>2011-10-23T16:49:12Z</time>
      </trkpt>
      <trkpt lat="59.6924237" lon="18.1075708">
        <ele>15.0377</ele>
        <time>2011-10-23T16:49:13Z</time>
      </trkpt>
      <trkpt lat="59.6922154" lon="18.1067139">
        <ele>15.999</ele>
        <time>2011-10-23T16:49:19Z</time>
      </trkpt>
      <trkpt lat="59.6919094" lon="18.1059446">
        <ele>14.557</ele>
        <time>2011-10-23T16:49:25Z</time>
      </trkpt>
      <trkpt lat="59.691517" lon="18.1053641">
        <ele>10.7118</ele>
        <time>2011-10-23T16:49:31Z</time>
      </trkpt>
      <trkpt lat="59.6911732" lon="18.1047819">
        <ele>9.75061</ele>
        <time>2011-10-23T16:49:37Z</time>
      </trkpt>
      <trkpt lat="59.6907688" lon="18.1041445">
        <ele>9.75061</ele>
        <time>2011-10-23T16:49:44Z</time>
      </trkpt>
      <trkpt lat="59.6902214" lon="18.1035432">
        <ele>8.30859</ele>
        <time>2011-10-23T16:49:52Z</time>
      </trkpt>
      <trkpt lat="59.6899386" lon="18.1033655">
        <ele>8.78918</ele>
        <time>2011-10-23T16:49:56Z</time>
      </trkpt>
      <trkpt lat="59.6897286" lon="18.1033562">
        <ele>9.75061</ele>
        <time>2011-10-23T16:49:59Z</time>
      </trkpt>
      <trkpt lat="59.6891194" lon="18.1036666">
        <ele>10.2312</ele>
        <time>2011-10-23T16:50:08Z</time>
      </trkpt>
      <trkpt lat="59.6886832" lon="18.1038202">
        <ele>9.75061</ele>
        <time>2011-10-23T16:50:14Z</time>
      </trkpt>
      <trkpt lat="59.6883429" lon="18.1036892">
        <ele>9.2699</ele>
        <time>2011-10-23T16:50:19Z</time>
      </trkpt>
      <trkpt lat="59.6882123" lon="18.103566">
        <ele>9.2699</ele>
        <time>2011-10-23T16:50:21Z</time>
      </trkpt>
      <trkpt lat="59.6878881" lon="18.1030414">
        <ele>9.75061</ele>
        <time>2011-10-23T16:50:27Z</time>
      </trkpt>
      <trkpt lat="59.6878431" lon="18.1029322">
        <ele>10.2312</ele>
        <time>2011-10-23T16:50:28Z</time>
      </trkpt>
      <trkpt lat="59.6876817" lon="18.1023239">
        <ele>11.6732</ele>
        <time>2011-10-23T16:50:33Z</time>
      </trkpt>
      <trkpt lat="59.6874798" lon="18.1011603">
        <ele>13.5958</ele>
        <time>2011-10-23T16:50:42Z</time>
      </trkpt>
      <trkpt lat="59.6872623" lon="18.1001162">
        <ele>12.6344</ele>
        <time>2011-10-23T16:50:49Z</time>
      </trkpt>
      <trkpt lat="59.6870505" lon="18.0993819">
        <ele>12.6344</ele>
        <time>2011-10-23T16:50:54Z</time>
      </trkpt>
      <trkpt lat="59.6865952" lon="18.0984">
        <ele>11.1925</ele>
        <time>2011-10-23T16:51:02Z</time>
      </trkpt>
      <trkpt lat="59.6862626" lon="18.097951">
        <ele>10.2312</ele>
        <time>2011-10-23T16:51:07Z</time>
      </trkpt>
      <trkpt lat="59.6859926" lon="18.0974857">
        <ele>10.7118</ele>
        <time>2011-10-23T16:51:12Z</time>
      </trkpt>
      <trkpt lat="59.6857218" lon="18.096876">
        <ele>12.1538</ele>
        <time>2011-10-23T16:51:18Z</time>
      </trkpt>
      <trkpt lat="59.6854596" lon="18.0960544">
        <ele>12.1538</ele>
        <time>2011-10-23T16:51:25Z</time>
      </trkpt>
      <trkpt lat="59.6851986" lon="18.0952754">
        <ele>10.2312</ele>
        <time>2011-10-23T16:51:31Z</time>
      </trkpt>
      <trkpt lat="59.6849301" lon="18.0942461">
        <ele>8.30859</ele>
        <time>2011-10-23T16:51:38Z</time>
      </trkpt>
      <trkpt lat="59.6846917" lon="18.0930975">
        <ele>8.30859</ele>
        <time>2011-10-23T16:51:45Z</time>
      </trkpt>
      <trkpt lat="59.6846604" lon="18.0929345">
        <ele>8.30859</ele>
        <time>2011-10-23T16:51:46Z</time>
      </trkpt>
      <trkpt lat="59.6844591" lon="18.0918456">
        <ele>9.2699</ele>
        <time>2011-10-23T16:51:53Z</time>
      </trkpt>
      <trkpt lat="59.6842174" lon="18.0907196">
        <ele>9.75061</ele>
        <time>2011-10-23T16:52:01Z</time>
      </trkpt>
      <trkpt lat="59.6839382" lon="18.0900197">
        <ele>10.2312</ele>
        <time>2011-10-23T16:52:07Z</time>
      </trkpt>
      <trkpt lat="59.6834627" lon="18.0890103">
        <ele>9.75061</ele>
        <time>2011-10-23T16:52:16Z</time>
      </trkpt>
      <trkpt lat="59.6830719" lon="18.088219">
        <ele>8.30859</ele>
        <time>2011-10-23T16:52:23Z</time>
      </trkpt>
      <trkpt lat="59.6826281" lon="18.0875373">
        <ele>6.38586</ele>
        <time>2011-10-23T16:52:30Z</time>
      </trkpt>
      <trkpt lat="59.6823086" lon="18.0869301">
        <ele>5.42456</ele>
        <time>2011-10-23T16:52:36Z</time>
      </trkpt>
      <trkpt lat="59.681992" lon="18.0861858">
        <ele>4.94385</ele>
        <time>2011-10-23T16:52:43Z</time>
      </trkpt>
      <trkpt lat="59.6816668" lon="18.0853792">
        <ele>6.38586</ele>
        <time>2011-10-23T16:52:51Z</time>
      </trkpt>
      <trkpt lat="59.6812519" lon="18.0845245">
        <ele>4.94385</ele>
        <time>2011-10-23T16:53:00Z</time>
      </trkpt>
      <trkpt lat="59.6809306" lon="18.0839681">
        <ele>4.94385</ele>
        <time>2011-10-23T16:53:06Z</time>
      </trkpt>
      <trkpt lat="59.6805928" lon="18.0836113">
        <ele>4.46326</ele>
        <time>2011-10-23T16:53:11Z</time>
      </trkpt>
      <trkpt lat="59.6801506" lon="18.0832842">
        <ele>3.98267</ele>
        <time>2011-10-23T16:53:17Z</time>
      </trkpt>
      <trkpt lat="59.6797859" lon="18.0828735">
        <ele>4.94385</ele>
        <time>2011-10-23T16:53:23Z</time>
      </trkpt>
      <trkpt lat="59.6793723" lon="18.0823301">
        <ele>4.94385</ele>
        <time>2011-10-23T16:53:30Z</time>
      </trkpt>
      <trkpt lat="59.6789428" lon="18.0817356">
        <ele>8.30859</ele>
        <time>2011-10-23T16:53:37Z</time>
      </trkpt>
      <trkpt lat="59.6786456" lon="18.0810581">
        <ele>10.2312</ele>
        <time>2011-10-23T16:53:43Z</time>
      </trkpt>
      <trkpt lat="59.6782749" lon="18.0800897">
        <ele>12.6344</ele>
        <time>2011-10-23T16:53:52Z</time>
      </trkpt>
      <trkpt lat="59.6780426" lon="18.0793094">
        <ele>14.0764</ele>
        <time>2011-10-23T16:53:59Z</time>
      </trkpt>
      <trkpt lat="59.6778814" lon="18.0783658">
        <ele>14.0764</ele>
        <time>2011-10-23T16:54:06Z</time>
      </trkpt>
      <trkpt lat="59.6777177" lon="18.0774272">
        <ele>15.5184</ele>
        <time>2011-10-23T16:54:13Z</time>
      </trkpt>
      <trkpt lat="59.6775123" lon="18.076684">
        <ele>16.9604</ele>
        <time>2011-10-23T16:54:19Z</time>
      </trkpt>
      <trkpt lat="59.6771429" lon="18.0759075">
        <ele>17.4412</ele>
        <time>2011-10-23T16:54:26Z</time>
      </trkpt>
      <trkpt lat="59.6768371" lon="18.07523">
        <ele>15.999</ele>
        <time>2011-10-23T16:54:32Z</time>
      </trkpt>
      <trkpt lat="59.6766774" lon="18.0745903">
        <ele>15.0377</ele>
        <time>2011-10-23T16:54:37Z</time>
      </trkpt>
      <trkpt lat="59.6764891" lon="18.0739235">
        <ele>13.5958</ele>
        <time>2011-10-23T16:54:43Z</time>
      </trkpt>
      <trkpt lat="59.6762555" lon="18.0733471">
        <ele>13.5958</ele>
        <time>2011-10-23T16:54:49Z</time>
      </trkpt>
      <trkpt lat="59.6760044" lon="18.0728062">
        <ele>13.5958</ele>
        <time>2011-10-23T16:54:55Z</time>
      </trkpt>
      <trkpt lat="59.6758006" lon="18.0721182">
        <ele>13.1151</ele>
        <time>2011-10-23T16:55:01Z</time>
      </trkpt>
      <trkpt lat="59.675683" lon="18.0712791">
        <ele>13.1151</ele>
        <time>2011-10-23T16:55:07Z</time>
      </trkpt>
      <trkpt lat="59.675548" lon="18.0699727">
        <ele>14.0764</ele>
        <time>2011-10-23T16:55:16Z</time>
      </trkpt>
      <trkpt lat="59.6754989" lon="18.0688429">
        <ele>15.5184</ele>
        <time>2011-10-23T16:55:24Z</time>
      </trkpt>
      <trkpt lat="59.6755102" lon="18.0678565">
        <ele>16.9604</ele>
        <time>2011-10-23T16:55:31Z</time>
      </trkpt>
      <trkpt lat="59.67553" lon="18.0665823">
        <ele>14.557</ele>
        <time>2011-10-23T16:55:40Z</time>
      </trkpt>
      <trkpt lat="59.6754402" lon="18.0658729">
        <ele>14.557</ele>
        <time>2011-10-23T16:55:45Z</time>
      </trkpt>
      <trkpt lat="59.6752492" lon="18.065207">
        <ele>14.0764</ele>
        <time>2011-10-23T16:55:50Z</time>
      </trkpt>
      <trkpt lat="59.6748901" lon="18.0643802">
        <ele>12.6344</ele>
        <time>2011-10-23T16:55:57Z</time>
      </trkpt>
      <trkpt lat="59.6745756" lon="18.0635152">
        <ele>11.1925</ele>
        <time>2011-10-23T16:56:04Z</time>
      </trkpt>
      <trkpt lat="59.6744457" lon="18.0627995">
        <ele>10.7118</ele>
        <time>2011-10-23T16:56:09Z</time>
      </trkpt>
      <trkpt lat="59.6744239" lon="18.062002">
        <ele>8.30859</ele>
        <time>2011-10-23T16:56:14Z</time>
      </trkpt>
      <trkpt lat="59.6745002" lon="18.0609159">
        <ele>8.30859</ele>
        <time>2011-10-23T16:56:21Z</time>
      </trkpt>
      <trkpt lat="59.6745016" lon="18.0600725">
        <ele>7.82788</ele>
        <time>2011-10-23T16:56:26Z</time>
      </trkpt>
      <trkpt lat="59.6744229" lon="18.0588668">
        <ele>6.86646</ele>
        <time>2011-10-23T16:56:33Z</time>
      </trkpt>
      <trkpt lat="59.6743256" lon="18.0577063">
        <ele>6.38586</ele>
        <time>2011-10-23T16:56:40Z</time>
      </trkpt>
      <trkpt lat="59.6741945" lon="18.0570772">
        <ele>6.86646</ele>
        <time>2011-10-23T16:56:44Z</time>
      </trkpt>
      <trkpt lat="59.6741013" lon="18.0567982">
        <ele>7.34717</ele>
        <time>2011-10-23T16:56:46Z</time>
      </trkpt>
      <trkpt lat="59.6737329" lon="18.0561366">
        <ele>7.34717</ele>
        <time>2011-10-23T16:56:52Z</time>
      </trkpt>
      <trkpt lat="59.6732765" lon="18.0555686">
        <ele>7.82788</ele>
        <time>2011-10-23T16:56:59Z</time>
      </trkpt>
      <trkpt lat="59.6728662" lon="18.0550876">
        <ele>9.2699</ele>
        <time>2011-10-23T16:57:06Z</time>
      </trkpt>
      <trkpt lat="59.6725119" lon="18.0546596">
        <ele>11.1925</ele>
        <time>2011-10-23T16:57:13Z</time>
      </trkpt>
      <trkpt lat="59.6721581" lon="18.0542372">
        <ele>11.1925</ele>
        <time>2011-10-23T16:57:20Z</time>
      </trkpt>
      <trkpt lat="59.6717742" lon="18.0537654">
        <ele>10.2312</ele>
        <time>2011-10-23T16:57:27Z</time>
      </trkpt>
      <trkpt lat="59.671461" lon="18.0533399">
        <ele>9.2699</ele>
        <time>2011-10-23T16:57:33Z</time>
      </trkpt>
      <trkpt lat="59.671163" lon="18.0527566">
        <ele>11.6732</ele>
        <time>2011-10-23T16:57:40Z</time>
      </trkpt>
      <trkpt lat="59.67085" lon="18.0519567">
        <ele>11.1925</ele>
        <time>2011-10-23T16:57:48Z</time>
      </trkpt>
      <trkpt lat="59.6704295" lon="18.0510834">
        <ele>10.7118</ele>
        <time>2011-10-23T16:57:57Z</time>
      </trkpt>
      <trkpt lat="59.6698507" lon="18.0501764">
        <ele>10.7118</ele>
        <time>2011-10-23T16:58:08Z</time>
      </trkpt>
      <trkpt lat="59.6693003" lon="18.0493365">
        <ele>10.2312</ele>
        <time>2011-10-23T16:58:19Z</time>
      </trkpt>
      <trkpt lat="59.6690247" lon="18.0488465">
        <ele>9.2699</ele>
        <time>2011-10-23T16:58:26Z</time>
      </trkpt>
      <trkpt lat="59.6689263" lon="18.0485681">
        <ele>9.75061</ele>
        <time>2011-10-23T16:58:29Z</time>
      </trkpt>
      <trkpt lat="59.6687383" lon="18.0482603">
        <ele>8.78918</ele>
        <time>2011-10-23T16:58:33Z</time>
      </trkpt>
      <trkpt lat="59.6685415" lon="18.048228">
        <ele>8.78918</ele>
        <time>2011-10-23T16:58:36Z</time>
      </trkpt>
      <trkpt lat="59.6678406" lon="18.0483349">
        <ele>7.34717</ele>
        <time>2011-10-23T16:58:46Z</time>
      </trkpt>
      <trkpt lat="59.6672768" lon="18.0482802">
        <ele>7.82788</ele>
        <time>2011-10-23T16:58:54Z</time>
      </trkpt>
      <trkpt lat="59.6666767" lon="18.0481331">
        <ele>10.2312</ele>
        <time>2011-10-23T16:59:03Z</time>
      </trkpt>
      <trkpt lat="59.6662968" lon="18.048006">
        <ele>11.1925</ele>
        <time>2011-10-23T16:59:09Z</time>
      </trkpt>
      <trkpt lat="59.6661719" lon="18.0479858">
        <ele>11.6732</ele>
        <time>2011-10-23T16:59:11Z</time>
      </trkpt>
      <trkpt lat="59.6654804" lon="18.0478118">
        <ele>11.6732</ele>
        <time>2011-10-23T16:59:22Z</time>
      </trkpt>
      <trkpt lat="59.6648205" lon="18.0476267">
        <ele>11.1925</ele>
        <time>2011-10-23T16:59:32Z</time>
      </trkpt>
      <trkpt lat="59.6640936" lon="18.0474242">
        <ele>9.75061</ele>
        <time>2011-10-23T16:59:42Z</time>
      </trkpt>
      <trkpt lat="59.6636564" lon="18.0473007">
        <ele>8.30859</ele>
        <time>2011-10-23T16:59:48Z</time>
      </trkpt>
      <trkpt lat="59.6633893" lon="18.0473392">
        <ele>8.30859</ele>
        <time>2011-10-23T16:59:52Z</time>
      </trkpt>
      <trkpt lat="59.6632122" lon="18.0473174">
        <ele>8.30859</ele>
        <time>2011-10-23T16:59:55Z</time>
      </trkpt>
      <trkpt lat="59.6629708" lon="18.0472138">
        <ele>8.78918</ele>
        <time>2011-10-23T16:59:59Z</time>
      </trkpt>
      <trkpt lat="59.6627928" lon="18.0473998">
        <ele>9.75061</ele>
        <time>2011-10-23T17:00:03Z</time>
      </trkpt>
      <trkpt lat="59.6627889" lon="18.0476402">
        <ele>10.2312</ele>
        <time>2011-10-23T17:00:05Z</time>
      </trkpt>
      <trkpt lat="59.6628436" lon="18.0484177">
        <ele>13.5958</ele>
        <time>2011-10-23T17:00:11Z</time>
      </trkpt>
      <trkpt lat="59.6627537" lon="18.0488133">
        <ele>14.557</ele>
        <time>2011-10-23T17:00:15Z</time>
      </trkpt>
      <trkpt lat="59.6625183" lon="18.0489208">
        <ele>14.0764</ele>
        <time>2011-10-23T17:00:19Z</time>
      </trkpt>
      <trkpt lat="59.6624072" lon="18.0490192">
        <ele>14.0764</ele>
        <time>2011-10-23T17:00:21Z</time>
      </trkpt>
      <trkpt lat="59.6620207" lon="18.0493456">
        <ele>13.5958</ele>
        <time>2011-10-23T17:00:28Z</time>
      </trkpt>
      <trkpt lat="59.6616017" lon="18.0494289">
        <ele>13.5958</ele>
        <time>2011-10-23T17:00:35Z</time>
      </trkpt>
      <trkpt lat="59.6611974" lon="18.0494116">
        <ele>13.1151</ele>
        <time>2011-10-23T17:00:42Z</time>
      </trkpt>
      <trkpt lat="59.6607286" lon="18.0492071">
        <ele>13.1151</ele>
        <time>2011-10-23T17:00:49Z</time>
      </trkpt>
      <trkpt lat="59.6601676" lon="18.0490505">
        <ele>12.1538</ele>
        <time>2011-10-23T17:00:57Z</time>
      </trkpt>
      <trkpt lat="59.6596057" lon="18.0487829">
        <ele>11.6732</ele>
        <time>2011-10-23T17:01:05Z</time>
      </trkpt>
      <trkpt lat="59.6589441" lon="18.048516">
        <ele>11.1925</ele>
        <time>2011-10-23T17:01:14Z</time>
      </trkpt>
      <trkpt lat="59.6585881" lon="18.0484913">
        <ele>11.6732</ele>
        <time>2011-10-23T17:01:19Z</time>
      </trkpt>
      <trkpt lat="59.6582123" lon="18.0486731">
        <ele>11.1925</ele>
        <time>2011-10-23T17:01:25Z</time>
      </trkpt>
      <trkpt lat="59.6578085" lon="18.0488503">
        <ele>11.1925</ele>
        <time>2011-10-23T17:01:32Z</time>
      </trkpt>
      <trkpt lat="59.6574477" lon="18.0490363">
        <ele>12.1538</ele>
        <time>2011-10-23T17:01:39Z</time>
      </trkpt>
      <trkpt lat="59.6571502" lon="18.0493158">
        <ele>15.0377</ele>
        <time>2011-10-23T17:01:46Z</time>
      </trkpt>
      <trkpt lat="59.6571089" lon="18.0493561">
        <ele>15.0377</ele>
        <time>2011-10-23T17:01:47Z</time>
      </trkpt>
      <trkpt lat="59.6568495" lon="18.0496547">
        <ele>15.999</ele>
        <time>2011-10-23T17:01:53Z</time>
      </trkpt>
      <trkpt lat="59.6564438" lon="18.0502286">
        <ele>15.999</ele>
        <time>2011-10-23T17:02:02Z</time>
      </trkpt>
      <trkpt lat="59.6560981" lon="18.0506948">
        <ele>11.6732</ele>
        <time>2011-10-23T17:02:09Z</time>
      </trkpt>
      <trkpt lat="59.6557054" lon="18.0510232">
        <ele>8.78918</ele>
        <time>2011-10-23T17:02:15Z</time>
      </trkpt>
      <trkpt lat="59.6552599" lon="18.0512455">
        <ele>6.38586</ele>
        <time>2011-10-23T17:02:21Z</time>
      </trkpt>
      <trkpt lat="59.6546758" lon="18.0515937">
        <ele>5.42456</ele>
        <time>2011-10-23T17:02:29Z</time>
      </trkpt>
      <trkpt lat="59.6543568" lon="18.0520169">
        <ele>6.38586</ele>
        <time>2011-10-23T17:02:34Z</time>
      </trkpt>
      <trkpt lat="59.6539211" lon="18.0528478">
        <ele>7.82788</ele>
        <time>2011-10-23T17:02:42Z</time>
      </trkpt>
      <trkpt lat="59.6535258" lon="18.0533837">
        <ele>8.78918</ele>
        <time>2011-10-23T17:02:48Z</time>
      </trkpt>
      <trkpt lat="59.6530568" lon="18.053852">
        <ele>9.2699</ele>
        <time>2011-10-23T17:02:55Z</time>
      </trkpt>
      <trkpt lat="59.6526196" lon="18.0545654">
        <ele>10.2312</ele>
        <time>2011-10-23T17:03:03Z</time>
      </trkpt>
      <trkpt lat="59.6522045" lon="18.055156">
        <ele>10.7118</ele>
        <time>2011-10-23T17:03:10Z</time>
      </trkpt>
      <trkpt lat="59.6516754" lon="18.0556853">
        <ele>10.2312</ele>
        <time>2011-10-23T17:03:18Z</time>
      </trkpt>
      <trkpt lat="59.6512134" lon="18.0560569">
        <ele>10.7118</ele>
        <time>2011-10-23T17:03:25Z</time>
      </trkpt>
      <trkpt lat="59.650574" lon="18.0566608">
        <ele>10.7118</ele>
        <time>2011-10-23T17:03:35Z</time>
      </trkpt>
      <trkpt lat="59.6501002" lon="18.0571689">
        <ele>10.7118</ele>
        <time>2011-10-23T17:03:43Z</time>
      </trkpt>
      <trkpt lat="59.6495409" lon="18.0577756">
        <ele>11.1925</ele>
        <time>2011-10-23T17:03:52Z</time>
      </trkpt>
      <trkpt lat="59.6493102" lon="18.058201">
        <ele>12.1538</ele>
        <time>2011-10-23T17:03:57Z</time>
      </trkpt>
      <trkpt lat="59.6490222" lon="18.0587456">
        <ele>12.6344</ele>
        <time>2011-10-23T17:04:03Z</time>
      </trkpt>
      <trkpt lat="59.6487402" lon="18.0590683">
        <ele>12.6344</ele>
        <time>2011-10-23T17:04:08Z</time>
      </trkpt>
      <trkpt lat="59.6484676" lon="18.0593477">
        <ele>12.6344</ele>
        <time>2011-10-23T17:04:13Z</time>
      </trkpt>
      <trkpt lat="59.6482806" lon="18.0596984">
        <ele>13.1151</ele>
        <time>2011-10-23T17:04:17Z</time>
      </trkpt>
      <trkpt lat="59.647949" lon="18.0605293">
        <ele>14.557</ele>
        <time>2011-10-23T17:04:25Z</time>
      </trkpt>
      <trkpt lat="59.6476203" lon="18.061356">
        <ele>15.0377</ele>
        <time>2011-10-23T17:04:33Z</time>
      </trkpt>
      <trkpt lat="59.6473205" lon="18.0619081">
        <ele>15.0377</ele>
        <time>2011-10-23T17:04:39Z</time>
      </trkpt>
      <trkpt lat="59.6470662" lon="18.062084">
        <ele>14.557</ele>
        <time>2011-10-23T17:04:43Z</time>
      </trkpt>
      <trkpt lat="59.6469108" lon="18.0619606">
        <ele>14.0764</ele>
        <time>2011-10-23T17:04:45Z</time>
      </trkpt>
      <trkpt lat="59.6468524" lon="18.0618456">
        <ele>13.5958</ele>
        <time>2011-10-23T17:04:46Z</time>
      </trkpt>
      <trkpt lat="59.6463043" lon="18.0607422">
        <ele>12.1538</ele>
        <time>2011-10-23T17:04:55Z</time>
      </trkpt>
      <trkpt lat="59.6459437" lon="18.060289">
        <ele>11.1925</ele>
        <time>2011-10-23T17:05:00Z</time>
      </trkpt>
      <trkpt lat="59.6454664" lon="18.059871">
        <ele>10.2312</ele>
        <time>2011-10-23T17:05:06Z</time>
      </trkpt>
      <trkpt lat="59.6450263" lon="18.0597019">
        <ele>11.1925</ele>
        <time>2011-10-23T17:05:12Z</time>
      </trkpt>
      <trkpt lat="59.6449538" lon="18.0596915">
        <ele>11.6732</ele>
        <time>2011-10-23T17:05:13Z</time>
      </trkpt>
      <trkpt lat="59.6443886" lon="18.0598194">
        <ele>11.6732</ele>
        <time>2011-10-23T17:05:21Z</time>
      </trkpt>
      <trkpt lat="59.6439472" lon="18.060018">
        <ele>10.2312</ele>
        <time>2011-10-23T17:05:27Z</time>
      </trkpt>
      <trkpt lat="59.6435633" lon="18.0600843">
        <ele>9.75061</ele>
        <time>2011-10-23T17:05:32Z</time>
      </trkpt>
      <trkpt lat="59.643158" lon="18.0600065">
        <ele>9.75061</ele>
        <time>2011-10-23T17:05:38Z</time>
      </trkpt>
      <trkpt lat="59.6426769" lon="18.0599104">
        <ele>8.78918</ele>
        <time>2011-10-23T17:05:45Z</time>
      </trkpt>
      <trkpt lat="59.6419706" lon="18.0598569">
        <ele>7.34717</ele>
        <time>2011-10-23T17:05:55Z</time>
      </trkpt>
      <trkpt lat="59.6413857" lon="18.0597754">
        <ele>6.86646</ele>
        <time>2011-10-23T17:06:03Z</time>
      </trkpt>
      <trkpt lat="59.6408118" lon="18.059699">
        <ele>8.30859</ele>
        <time>2011-10-23T17:06:11Z</time>
      </trkpt>
      <trkpt lat="59.6403347" lon="18.0598554">
        <ele>8.30859</ele>
        <time>2011-10-23T17:06:18Z</time>
      </trkpt>
      <trkpt lat="59.6396984" lon="18.0599894">
        <ele>9.2699</ele>
        <time>2011-10-23T17:06:28Z</time>
      </trkpt>
      <trkpt lat="59.6392085" lon="18.0600704">
        <ele>10.2312</ele>
        <time>2011-10-23T17:06:36Z</time>
      </trkpt>
      <trkpt lat="59.6388455" lon="18.0603246">
        <ele>11.1925</ele>
        <time>2011-10-23T17:06:42Z</time>
      </trkpt>
      <trkpt lat="59.6386603" lon="18.0604507">
        <ele>11.6732</ele>
        <time>2011-10-23T17:06:45Z</time>
      </trkpt>
      <trkpt lat="59.638201" lon="18.0605187">
        <ele>14.0764</ele>
        <time>2011-10-23T17:06:52Z</time>
      </trkpt>
      <trkpt lat="59.6380684" lon="18.0605465">
        <ele>15.0377</ele>
        <time>2011-10-23T17:06:54Z</time>
      </trkpt>
      <trkpt lat="59.6378188" lon="18.0607743">
        <ele>15.0377</ele>
        <time>2011-10-23T17:06:59Z</time>
      </trkpt>
      <trkpt lat="59.6376039" lon="18.0611105">
        <ele>12.6344</ele>
        <time>2011-10-23T17:07:05Z</time>
      </trkpt>
      <trkpt lat="59.6374389" lon="18.0613719">
        <ele>11.1925</ele>
        <time>2011-10-23T17:07:10Z</time>
      </trkpt>
      <trkpt lat="59.637338" lon="18.0615211">
        <ele>11.6732</ele>
        <time>2011-10-23T17:07:13Z</time>
      </trkpt>
      <trkpt lat="59.6371617" lon="18.0618338">
        <ele>15.999</ele>
        <time>2011-10-23T17:07:18Z</time>
      </trkpt>
      <trkpt lat="59.6369122" lon="18.0622829">
        <ele>20.325</ele>
        <time>2011-10-23T17:07:24Z</time>
      </trkpt>
      <trkpt lat="59.6366049" lon="18.0627757">
        <ele>21.767</ele>
        <time>2011-10-23T17:07:31Z</time>
      </trkpt>
      <trkpt lat="59.6363958" lon="18.0630251">
        <ele>22.2476</ele>
        <time>2011-10-23T17:07:35Z</time>
      </trkpt>
      <trkpt lat="59.6360958" lon="18.0636472">
        <ele>23.6896</ele>
        <time>2011-10-23T17:07:42Z</time>
      </trkpt>
      <trkpt lat="59.6358497" lon="18.0641123">
        <ele>24.1703</ele>
        <time>2011-10-23T17:07:47Z</time>
      </trkpt>
      <trkpt lat="59.6354272" lon="18.0644758">
        <ele>23.209</ele>
        <time>2011-10-23T17:07:53Z</time>
      </trkpt>
      <trkpt lat="59.635352" lon="18.0645346">
        <ele>22.7283</ele>
        <time>2011-10-23T17:07:54Z</time>
      </trkpt>
      <trkpt lat="59.6349878" lon="18.0649738">
        <ele>22.7283</ele>
        <time>2011-10-23T17:07:59Z</time>
      </trkpt>
      <trkpt lat="59.6344214" lon="18.065682">
        <ele>23.6896</ele>
        <time>2011-10-23T17:08:07Z</time>
      </trkpt>
      <trkpt lat="59.6340827" lon="18.0659498">
        <ele>24.651</ele>
        <time>2011-10-23T17:08:12Z</time>
      </trkpt>
      <trkpt lat="59.6337929" lon="18.0660561">
        <ele>26.0929</ele>
        <time>2011-10-23T17:08:17Z</time>
      </trkpt>
      <trkpt lat="59.633483" lon="18.0662239">
        <ele>27.0543</ele>
        <time>2011-10-23T17:08:23Z</time>
      </trkpt>
      <trkpt lat="59.6333224" lon="18.0664569">
        <ele>27.5349</ele>
        <time>2011-10-23T17:08:27Z</time>
      </trkpt>
      <trkpt lat="59.6330089" lon="18.0670925">
        <ele>29.4575</ele>
        <time>2011-10-23T17:08:35Z</time>
      </trkpt>
      <trkpt lat="59.6329659" lon="18.0671765">
        <ele>29.4575</ele>
        <time>2011-10-23T17:08:36Z</time>
      </trkpt>
      <trkpt lat="59.6326424" lon="18.0676867">
        <ele>27.0543</ele>
        <time>2011-10-23T17:08:42Z</time>
      </trkpt>
      <trkpt lat="59.6323159" lon="18.0680063">
        <ele>24.651</ele>
        <time>2011-10-23T17:08:46Z</time>
      </trkpt>
      <trkpt lat="59.631842" lon="18.0682734">
        <ele>22.2476</ele>
        <time>2011-10-23T17:08:51Z</time>
      </trkpt>
      <trkpt lat="59.6314599" lon="18.0682386">
        <ele>21.2864</ele>
        <time>2011-10-23T17:08:55Z</time>
      </trkpt>
      <trkpt lat="59.6308806" lon="18.0678676">
        <ele>16.9604</ele>
        <time>2011-10-23T17:09:02Z</time>
      </trkpt>
      <trkpt lat="59.6304112" lon="18.0676535">
        <ele>12.6344</ele>
        <time>2011-10-23T17:09:07Z</time>
      </trkpt>
      <trkpt lat="59.6298363" lon="18.0677716">
        <ele>10.2312</ele>
        <time>2011-10-23T17:09:13Z</time>
      </trkpt>
      <trkpt lat="59.629323" lon="18.0678312">
        <ele>12.1538</ele>
        <time>2011-10-23T17:09:18Z</time>
      </trkpt>
      <trkpt lat="59.6286545" lon="18.0678014">
        <ele>15.999</ele>
        <time>2011-10-23T17:09:25Z</time>
      </trkpt>
      <trkpt lat="59.6279973" lon="18.0677178">
        <ele>16.4797</ele>
        <time>2011-10-23T17:09:32Z</time>
      </trkpt>
      <trkpt lat="59.627152" lon="18.0675643">
        <ele>15.999</ele>
        <time>2011-10-23T17:09:41Z</time>
      </trkpt>
      <trkpt lat="59.626723" lon="18.0674226">
        <ele>16.4797</ele>
        <time>2011-10-23T17:09:46Z</time>
      </trkpt>
      <trkpt lat="59.6262749" lon="18.0671983">
        <ele>15.999</ele>
        <time>2011-10-23T17:09:52Z</time>
      </trkpt>
      <trkpt lat="59.6257367" lon="18.0669747">
        <ele>15.0377</ele>
        <time>2011-10-23T17:09:59Z</time>
      </trkpt>
      <trkpt lat="59.6252031" lon="18.066661">
        <ele>15.999</ele>
        <time>2011-10-23T17:10:06Z</time>
      </trkpt>
      <trkpt lat="59.6245777" lon="18.0663233">
        <ele>13.1151</ele>
        <time>2011-10-23T17:10:14Z</time>
      </trkpt>
      <trkpt lat="59.6243448" lon="18.0662265">
        <ele>12.6344</ele>
        <time>2011-10-23T17:10:17Z</time>
      </trkpt>
      <trkpt lat="59.6236522" lon="18.0662109">
        <ele>9.75061</ele>
        <time>2011-10-23T17:10:25Z</time>
      </trkpt>
      <trkpt lat="59.6231192" lon="18.0661376">
        <ele>8.78918</ele>
        <time>2011-10-23T17:10:31Z</time>
      </trkpt>
      <trkpt lat="59.6226456" lon="18.0659033">
        <ele>8.78918</ele>
        <time>2011-10-23T17:10:37Z</time>
      </trkpt>
      <trkpt lat="59.6221473" lon="18.0655909">
        <ele>10.2312</ele>
        <time>2011-10-23T17:10:44Z</time>
      </trkpt>
      <trkpt lat="59.6216605" lon="18.0653709">
        <ele>10.2312</ele>
        <time>2011-10-23T17:10:51Z</time>
      </trkpt>
      <trkpt lat="59.6209781" lon="18.0652311">
        <ele>9.2699</ele>
        <time>2011-10-23T17:11:00Z</time>
      </trkpt>
      <trkpt lat="59.620308" lon="18.0651013">
        <ele>8.78918</ele>
        <time>2011-10-23T17:11:09Z</time>
      </trkpt>
      <trkpt lat="59.6197116" lon="18.0650784">
        <ele>7.82788</ele>
        <time>2011-10-23T17:11:17Z</time>
      </trkpt>
      <trkpt lat="59.619099" lon="18.0649784">
        <ele>7.34717</ele>
        <time>2011-10-23T17:11:25Z</time>
      </trkpt>
      <trkpt lat="59.6185653" lon="18.064741">
        <ele>7.34717</ele>
        <time>2011-10-23T17:11:32Z</time>
      </trkpt>
      <trkpt lat="59.6182763" lon="18.0647046">
        <ele>6.86646</ele>
        <time>2011-10-23T17:11:36Z</time>
      </trkpt>
      <trkpt lat="59.6177837" lon="18.0649184">
        <ele>5.90527</ele>
        <time>2011-10-23T17:11:43Z</time>
      </trkpt>
      <trkpt lat="59.6171688" lon="18.0653079">
        <ele>4.94385</ele>
        <time>2011-10-23T17:11:52Z</time>
      </trkpt>
      <trkpt lat="59.616533" lon="18.0657378">
        <ele>4.46326</ele>
        <time>2011-10-23T17:12:02Z</time>
      </trkpt>
      <trkpt lat="59.6162099" lon="18.0659337">
        <ele>4.46326</ele>
        <time>2011-10-23T17:12:07Z</time>
      </trkpt>
      <trkpt lat="59.6156151" lon="18.0660803">
        <ele>4.94385</ele>
        <time>2011-10-23T17:12:16Z</time>
      </trkpt>
      <trkpt lat="59.6152537" lon="18.0661834">
        <ele>5.90527</ele>
        <time>2011-10-23T17:12:22Z</time>
      </trkpt>
      <trkpt lat="59.6150061" lon="18.0662278">
        <ele>5.90527</ele>
        <time>2011-10-23T17:12:26Z</time>
      </trkpt>
      <trkpt lat="59.6147621" lon="18.0661816">
        <ele>6.86646</ele>
        <time>2011-10-23T17:12:30Z</time>
      </trkpt>
      <trkpt lat="59.6144238" lon="18.0660014">
        <ele>9.2699</ele>
        <time>2011-10-23T17:12:37Z</time>
      </trkpt>
      <trkpt lat="59.6140538" lon="18.0659072">
        <ele>10.7118</ele>
        <time>2011-10-23T17:12:44Z</time>
      </trkpt>
      <trkpt lat="59.6137183" lon="18.0658985">
        <ele>7.82788</ele>
        <time>2011-10-23T17:12:49Z</time>
      </trkpt>
      <trkpt lat="59.6135769" lon="18.0659129">
        <ele>7.82788</ele>
        <time>2011-10-23T17:12:51Z</time>
      </trkpt>
      <trkpt lat="59.6133748" lon="18.066031">
        <ele>7.82788</ele>
        <time>2011-10-23T17:12:54Z</time>
      </trkpt>
      <trkpt lat="59.6132619" lon="18.0662068">
        <ele>7.82788</ele>
        <time>2011-10-23T17:12:56Z</time>
      </trkpt>
      <trkpt lat="59.6131744" lon="18.0664401">
        <ele>7.82788</ele>
        <time>2011-10-23T17:12:58Z</time>
      </trkpt>
      <trkpt lat="59.6130435" lon="18.0668072">
        <ele>8.78918</ele>
        <time>2011-10-23T17:13:01Z</time>
      </trkpt>
      <trkpt lat="59.6127159" lon="18.0672375">
        <ele>8.30859</ele>
        <time>2011-10-23T17:13:06Z</time>
      </trkpt>
      <trkpt lat="59.6125548" lon="18.0672846">
        <ele>7.34717</ele>
        <time>2011-10-23T17:13:08Z</time>
      </trkpt>
      <trkpt lat="59.6117286" lon="18.0673706">
        <ele>4.46326</ele>
        <time>2011-10-23T17:13:18Z</time>
      </trkpt>
      <trkpt lat="59.6109431" lon="18.0674582">
        <ele>3.02124</ele>
        <time>2011-10-23T17:13:27Z</time>
      </trkpt>
      <trkpt lat="59.6104795" lon="18.0675428">
        <ele>3.98267</ele>
        <time>2011-10-23T17:13:33Z</time>
      </trkpt>
      <trkpt lat="59.6104113" lon="18.0675777">
        <ele>3.98267</ele>
        <time>2011-10-23T17:13:34Z</time>
      </trkpt>
      <trkpt lat="59.610071" lon="18.0679048">
        <ele>5.42456</ele>
        <time>2011-10-23T17:13:40Z</time>
      </trkpt>
      <trkpt lat="59.6099582" lon="18.0680001">
        <ele>5.90527</ele>
        <time>2011-10-23T17:13:42Z</time>
      </trkpt>
      <trkpt lat="59.6097302" lon="18.0680584">
        <ele>7.82788</ele>
        <time>2011-10-23T17:13:46Z</time>
      </trkpt>
      <trkpt lat="59.6094017" lon="18.0679493">
        <ele>8.30859</ele>
        <time>2011-10-23T17:13:52Z</time>
      </trkpt>
      <trkpt lat="59.6089754" lon="18.0677251">
        <ele>8.78918</ele>
        <time>2011-10-23T17:14:00Z</time>
      </trkpt>
      <trkpt lat="59.6086769" lon="18.0675317">
        <ele>7.82788</ele>
        <time>2011-10-23T17:14:06Z</time>
      </trkpt>
      <trkpt lat="59.6082127" lon="18.0672816">
        <ele>6.86646</ele>
        <time>2011-10-23T17:14:14Z</time>
      </trkpt>
      <trkpt lat="59.6078238" lon="18.0672596">
        <ele>5.42456</ele>
        <time>2011-10-23T17:14:20Z</time>
      </trkpt>
      <trkpt lat="59.6073504" lon="18.0672057">
        <ele>4.94385</ele>
        <time>2011-10-23T17:14:27Z</time>
      </trkpt>
      <trkpt lat="59.6067765" lon="18.0669059">
        <ele>5.42456</ele>
        <time>2011-10-23T17:14:36Z</time>
      </trkpt>
      <trkpt lat="59.6067147" lon="18.0668583">
        <ele>5.42456</ele>
        <time>2011-10-23T17:14:37Z</time>
      </trkpt>
      <trkpt lat="59.6064668" lon="18.0664335">
        <ele>5.42456</ele>
        <time>2011-10-23T17:14:42Z</time>
      </trkpt>
      <trkpt lat="59.606431" lon="18.0660446">
        <ele>5.42456</ele>
        <time>2011-10-23T17:14:45Z</time>
      </trkpt>
      <trkpt lat="59.6064919" lon="18.0656175">
        <ele>4.94385</ele>
        <time>2011-10-23T17:14:48Z</time>
      </trkpt>
      <trkpt lat="59.606653" lon="18.064912">
        <ele>4.46326</ele>
        <time>2011-10-23T17:14:53Z</time>
      </trkpt>
      <trkpt lat="59.6066919" lon="18.0643024">
        <ele>3.98267</ele>
        <time>2011-10-23T17:14:57Z</time>
      </trkpt>
      <trkpt lat="59.6065834" lon="18.0638906">
        <ele>3.50195</ele>
        <time>2011-10-23T17:15:00Z</time>
      </trkpt>
      <trkpt lat="59.6061085" lon="18.0627889">
        <ele>3.98267</ele>
        <time>2011-10-23T17:15:09Z</time>
      </trkpt>
      <trkpt lat="59.606044" lon="18.062684">
        <ele>4.46326</ele>
        <time>2011-10-23T17:15:10Z</time>
      </trkpt>
      <trkpt lat="59.6057498" lon="18.0624454">
        <ele>3.02124</ele>
        <time>2011-10-23T17:15:14Z</time>
      </trkpt>
      <trkpt lat="59.6055321" lon="18.0625263">
        <ele>3.02124</ele>
        <time>2011-10-23T17:15:17Z</time>
      </trkpt>
      <trkpt lat="59.6050562" lon="18.0627687">
        <ele>3.98267</ele>
        <time>2011-10-23T17:15:24Z</time>
      </trkpt>
      <trkpt lat="59.6046887" lon="18.0628313">
        <ele>5.42456</ele>
        <time>2011-10-23T17:15:30Z</time>
      </trkpt>
      <trkpt lat="59.6041679" lon="18.0628781">
        <ele>12.1538</ele>
        <time>2011-10-23T17:15:39Z</time>
      </trkpt>
      <trkpt lat="59.6039471" lon="18.0628431">
        <ele>14.557</ele>
        <time>2011-10-23T17:15:43Z</time>
      </trkpt>
      <trkpt lat="59.6035912" lon="18.062647">
        <ele>15.5184</ele>
        <time>2011-10-23T17:15:49Z</time>
      </trkpt>
      <trkpt lat="59.6032089" lon="18.062238">
        <ele>14.0764</ele>
        <time>2011-10-23T17:15:55Z</time>
      </trkpt>
      <trkpt lat="59.6028254" lon="18.0619044">
        <ele>11.6732</ele>
        <time>2011-10-23T17:16:00Z</time>
      </trkpt>
      <trkpt lat="59.6024102" lon="18.0615576">
        <ele>9.75061</ele>
        <time>2011-10-23T17:16:05Z</time>
      </trkpt>
      <trkpt lat="59.6020767" lon="18.0609663">
        <ele>6.86646</ele>
        <time>2011-10-23T17:16:10Z</time>
      </trkpt>
      <trkpt lat="59.6019507" lon="18.0607163">
        <ele>6.38586</ele>
        <time>2011-10-23T17:16:12Z</time>
      </trkpt>
      <trkpt lat="59.6015908" lon="18.0603058">
        <ele>4.94385</ele>
        <time>2011-10-23T17:16:17Z</time>
      </trkpt>
      <trkpt lat="59.6013703" lon="18.0602874">
        <ele>4.94385</ele>
        <time>2011-10-23T17:16:20Z</time>
      </trkpt>
      <trkpt lat="59.6010825" lon="18.0603205">
        <ele>5.90527</ele>
        <time>2011-10-23T17:16:24Z</time>
      </trkpt>
      <trkpt lat="59.6007335" lon="18.0602795">
        <ele>5.90527</ele>
        <time>2011-10-23T17:16:29Z</time>
      </trkpt>
      <trkpt lat="59.6003507" lon="18.060176">
        <ele>5.90527</ele>
        <time>2011-10-23T17:16:35Z</time>
      </trkpt>
      <trkpt lat="59.6001927" lon="18.0601149">
        <ele>5.90527</ele>
        <time>2011-10-23T17:16:38Z</time>
      </trkpt>
      <trkpt lat="59.6001219" lon="18.0598683">
        <ele>5.90527</ele>
        <time>2011-10-23T17:16:42Z</time>
      </trkpt>
      <trkpt lat="59.6002194" lon="18.059109">
        <ele>5.90527</ele>
        <time>2011-10-23T17:16:48Z</time>
      </trkpt>
      <trkpt lat="59.6003008" lon="18.0586382">
        <ele>6.86646</ele>
        <time>2011-10-23T17:16:51Z</time>
      </trkpt>
      <trkpt lat="59.6004754" lon="18.0576337">
        <ele>4.94385</ele>
        <time>2011-10-23T17:16:57Z</time>
      </trkpt>
      <trkpt lat="59.6004954" lon="18.0574518">
        <ele>4.46326</ele>
        <time>2011-10-23T17:16:58Z</time>
      </trkpt>
      <trkpt lat="59.6004521" lon="18.0566638">
        <ele>2.06006</ele>
        <time>2011-10-23T17:17:02Z</time>
      </trkpt>
      <trkpt lat="59.6002841" lon="18.0554342">
        <ele>0</ele>
        <time>2011-10-23T17:17:08Z</time>
      </trkpt>
      <trkpt lat="59.6001318" lon="18.0543392">
        <ele>0</ele>
        <time>2011-10-23T17:17:14Z</time>
      </trkpt>
      <trkpt lat="59.5999794" lon="18.0532844">
        <ele>0</ele>
        <time>2011-10-23T17:17:21Z</time>
      </trkpt>
      <trkpt lat="59.5996966" lon="18.0524354">
        <ele>0</ele>
        <time>2011-10-23T17:17:27Z</time>
      </trkpt>
      <trkpt lat="59.5994654" lon="18.0516613">
        <ele>0</ele>
        <time>2011-10-23T17:17:32Z</time>
      </trkpt>
      <trkpt lat="59.5993601" lon="18.0509756">
        <ele>0</ele>
        <time>2011-10-23T17:17:36Z</time>
      </trkpt>
      <trkpt lat="59.5992622" lon="18.05014">
        <ele>0</ele>
        <time>2011-10-23T17:17:41Z</time>
      </trkpt>
      <trkpt lat="59.5989975" lon="18.0490185">
        <ele>0</ele>
        <time>2011-10-23T17:17:49Z</time>
      </trkpt>
      <trkpt lat="59.5988074" lon="18.0483916">
        <ele>0</ele>
        <time>2011-10-23T17:17:55Z</time>
      </trkpt>
      <trkpt lat="59.5985602" lon="18.0481306">
        <ele>0</ele>
        <time>2011-10-23T17:18:00Z</time>
      </trkpt>
      <trkpt lat="59.5981258" lon="18.0479972">
        <ele>0</ele>
        <time>2011-10-23T17:18:08Z</time>
      </trkpt>
      <trkpt lat="59.5977593" lon="18.0477283">
        <ele>2.06006</ele>
        <time>2011-10-23T17:18:15Z</time>
      </trkpt>
      <trkpt lat="59.597389" lon="18.0474067">
        <ele>3.98267</ele>
        <time>2011-10-23T17:18:22Z</time>
      </trkpt>
      <trkpt lat="59.5971802" lon="18.0471235">
        <ele>4.46326</ele>
        <time>2011-10-23T17:18:26Z</time>
      </trkpt>
      <trkpt lat="59.5970078" lon="18.0465938">
        <ele>4.46326</ele>
        <time>2011-10-23T17:18:31Z</time>
      </trkpt>
      <trkpt lat="59.5969208" lon="18.0456672">
        <ele>3.98267</ele>
        <time>2011-10-23T17:18:38Z</time>
      </trkpt>
      <trkpt lat="59.5969247" lon="18.0447336">
        <ele>4.46326</ele>
        <time>2011-10-23T17:18:45Z</time>
      </trkpt>
      <trkpt lat="59.5969462" lon="18.0439134">
        <ele>6.38586</ele>
        <time>2011-10-23T17:18:52Z</time>
      </trkpt>
      <trkpt lat="59.5968802" lon="18.0433587">
        <ele>7.34717</ele>
        <time>2011-10-23T17:18:57Z</time>
      </trkpt>
      <trkpt lat="59.5968047" lon="18.0431634">
        <ele>7.34717</ele>
        <time>2011-10-23T17:18:59Z</time>
      </trkpt>
      <trkpt lat="59.5964639" lon="18.0424958">
        <ele>6.86646</ele>
        <time>2011-10-23T17:19:07Z</time>
      </trkpt>
      <trkpt lat="59.5962236" lon="18.0418877">
        <ele>5.90527</ele>
        <time>2011-10-23T17:19:14Z</time>
      </trkpt>
      <trkpt lat="59.5961514" lon="18.0415966">
        <ele>5.42456</ele>
        <time>2011-10-23T17:19:17Z</time>
      </trkpt>
      <trkpt lat="59.59594" lon="18.0412198">
        <ele>4.46326</ele>
        <time>2011-10-23T17:19:22Z</time>
      </trkpt>
      <trkpt lat="59.5958776" lon="18.0411656">
        <ele>3.98267</ele>
        <time>2011-10-23T17:19:23Z</time>
      </trkpt>
      <trkpt lat="59.5954112" lon="18.0408057">
        <ele>2.54065</ele>
        <time>2011-10-23T17:19:29Z</time>
      </trkpt>
      <trkpt lat="59.5945778" lon="18.0401741">
        <ele>3.02124</ele>
        <time>2011-10-23T17:19:39Z</time>
      </trkpt>
      <trkpt lat="59.5936885" lon="18.0394624">
        <ele>5.90527</ele>
        <time>2011-10-23T17:19:50Z</time>
      </trkpt>
      <trkpt lat="59.5931366" lon="18.0391536">
        <ele>2.06006</ele>
        <time>2011-10-23T17:19:57Z</time>
      </trkpt>
      <trkpt lat="59.5926824" lon="18.0388828">
        <ele>0.618042</ele>
        <time>2011-10-23T17:20:03Z</time>
      </trkpt>
      <trkpt lat="59.5923846" lon="18.0383823">
        <ele>2.54065</ele>
        <time>2011-10-23T17:20:08Z</time>
      </trkpt>
      <trkpt lat="59.5922083" lon="18.0378965">
        <ele>0.618042</ele>
        <time>2011-10-23T17:20:12Z</time>
      </trkpt>
      <trkpt lat="59.5918924" lon="18.0375011">
        <ele>0</ele>
        <time>2011-10-23T17:20:17Z</time>
      </trkpt>
      <trkpt lat="59.5912914" lon="18.0370687">
        <ele>0</ele>
        <time>2011-10-23T17:20:26Z</time>
      </trkpt>
      <trkpt lat="59.5908255" lon="18.036939">
        <ele>0</ele>
        <time>2011-10-23T17:20:33Z</time>
      </trkpt>
      <trkpt lat="59.5907553" lon="18.0369198">
        <ele>0</ele>
        <time>2011-10-23T17:20:34Z</time>
      </trkpt>
      <trkpt lat="59.5904421" lon="18.0366051">
        <ele>0</ele>
        <time>2011-10-23T17:20:39Z</time>
      </trkpt>
      <trkpt lat="59.5903939" lon="18.0365065">
        <ele>0</ele>
        <time>2011-10-23T17:20:40Z</time>
      </trkpt>
      <trkpt lat="59.5899861" lon="18.0355724">
        <ele>0</ele>
        <time>2011-10-23T17:20:49Z</time>
      </trkpt>
      <trkpt lat="59.5896112" lon="18.0350694">
        <ele>0</ele>
        <time>2011-10-23T17:20:56Z</time>
      </trkpt>
      <trkpt lat="59.5892953" lon="18.0346339">
        <ele>0</ele>
        <time>2011-10-23T17:21:02Z</time>
      </trkpt>
      <trkpt lat="59.5890497" lon="18.0344794">
        <ele>0</ele>
        <time>2011-10-23T17:21:06Z</time>
      </trkpt>
      <trkpt lat="59.5886254" lon="18.034343">
        <ele>2.54065</ele>
        <time>2011-10-23T17:21:13Z</time>
      </trkpt>
      <trkpt lat="59.588568" lon="18.0343106">
        <ele>3.02124</ele>
        <time>2011-10-23T17:21:14Z</time>
      </trkpt>
      <trkpt lat="59.5882017" lon="18.0342547">
        <ele>4.46326</ele>
        <time>2011-10-23T17:21:20Z</time>
      </trkpt>
      <trkpt lat="59.5878713" lon="18.0340248">
        <ele>4.94385</ele>
        <time>2011-10-23T17:21:25Z</time>
      </trkpt>
      <trkpt lat="59.5874262" lon="18.0333084">
        <ele>4.46326</ele>
        <time>2011-10-23T17:21:34Z</time>
      </trkpt>
      <trkpt lat="59.5873221" lon="18.0331836">
        <ele>3.98267</ele>
        <time>2011-10-23T17:21:36Z</time>
      </trkpt>
      <trkpt lat="59.5868288" lon="18.0327826">
        <ele>3.98267</ele>
        <time>2011-10-23T17:21:44Z</time>
      </trkpt>
      <trkpt lat="59.586391" lon="18.0323843">
        <ele>3.50195</ele>
        <time>2011-10-23T17:21:51Z</time>
      </trkpt>
      <trkpt lat="59.5862012" lon="18.0320802">
        <ele>3.50195</ele>
        <time>2011-10-23T17:21:55Z</time>
      </trkpt>
      <trkpt lat="59.5859991" lon="18.0315869">
        <ele>2.54065</ele>
        <time>2011-10-23T17:22:00Z</time>
      </trkpt>
      <trkpt lat="59.585668" lon="18.0311849">
        <ele>2.06006</ele>
        <time>2011-10-23T17:22:06Z</time>
      </trkpt>
      <trkpt lat="59.5853569" lon="18.0308432">
        <ele>3.98267</ele>
        <time>2011-10-23T17:22:12Z</time>
      </trkpt>
      <trkpt lat="59.5850066" lon="18.0303956">
        <ele>5.90527</ele>
        <time>2011-10-23T17:22:19Z</time>
      </trkpt>
      <trkpt lat="59.5846698" lon="18.0301059">
        <ele>6.38586</ele>
        <time>2011-10-23T17:22:25Z</time>
      </trkpt>
      <trkpt lat="59.5843482" lon="18.0300108">
        <ele>6.38586</ele>
        <time>2011-10-23T17:22:30Z</time>
      </trkpt>
      <trkpt lat="59.583961" lon="18.030109">
        <ele>4.94385</ele>
        <time>2011-10-23T17:22:35Z</time>
      </trkpt>
      <trkpt lat="59.5837201" lon="18.0301978">
        <ele>3.98267</ele>
        <time>2011-10-23T17:22:38Z</time>
      </trkpt>
      <trkpt lat="59.5833982" lon="18.0301158">
        <ele>3.98267</ele>
        <time>2011-10-23T17:22:42Z</time>
      </trkpt>
      <trkpt lat="59.5832677" lon="18.0299502">
        <ele>4.94385</ele>
        <time>2011-10-23T17:22:44Z</time>
      </trkpt>
      <trkpt lat="59.5828827" lon="18.029253">
        <ele>4.46326</ele>
        <time>2011-10-23T17:22:51Z</time>
      </trkpt>
      <trkpt lat="59.582505" lon="18.028852">
        <ele>0.137451</ele>
        <time>2011-10-23T17:22:56Z</time>
      </trkpt>
      <trkpt lat="59.5820763" lon="18.0284832">
        <ele>0</ele>
        <time>2011-10-23T17:23:01Z</time>
      </trkpt>
      <trkpt lat="59.5817758" lon="18.0280175">
        <ele>0</ele>
        <time>2011-10-23T17:23:05Z</time>
      </trkpt>
      <trkpt lat="59.5817322" lon="18.0278473">
        <ele>0</ele>
        <time>2011-10-23T17:23:06Z</time>
      </trkpt>
      <trkpt lat="59.5815395" lon="18.0268306">
        <ele>0</ele>
        <time>2011-10-23T17:23:12Z</time>
      </trkpt>
      <trkpt lat="59.5813287" lon="18.0261625">
        <ele>0</ele>
        <time>2011-10-23T17:23:17Z</time>
      </trkpt>
      <trkpt lat="59.581017" lon="18.0252466">
        <ele>0</ele>
        <time>2011-10-23T17:23:24Z</time>
      </trkpt>
      <trkpt lat="59.58059" lon="18.0240234">
        <ele>0</ele>
        <time>2011-10-23T17:23:33Z</time>
      </trkpt>
      <trkpt lat="59.5804209" lon="18.0233398">
        <ele>0</ele>
        <time>2011-10-23T17:23:38Z</time>
      </trkpt>
      <trkpt lat="59.580269" lon="18.022354">
        <ele>0</ele>
        <time>2011-10-23T17:23:45Z</time>
      </trkpt>
      <trkpt lat="59.5800675" lon="18.02154">
        <ele>0</ele>
        <time>2011-10-23T17:23:52Z</time>
      </trkpt>
      <trkpt lat="59.5799068" lon="18.020877">
        <ele>0</ele>
        <time>2011-10-23T17:23:58Z</time>
      </trkpt>
      <trkpt lat="59.5796642" lon="18.0199213">
        <ele>0</ele>
        <time>2011-10-23T17:24:06Z</time>
      </trkpt>
      <trkpt lat="59.5794592" lon="18.0191572">
        <ele>0</ele>
        <time>2011-10-23T17:24:13Z</time>
      </trkpt>
      <trkpt lat="59.5791665" lon="18.0181947">
        <ele>0</ele>
        <time>2011-10-23T17:24:22Z</time>
      </trkpt>
      <trkpt lat="59.5788619" lon="18.0171842">
        <ele>0</ele>
        <time>2011-10-23T17:24:31Z</time>
      </trkpt>
      <trkpt lat="59.5785773" lon="18.0161327">
        <ele>0</ele>
        <time>2011-10-23T17:24:40Z</time>
      </trkpt>
      <trkpt lat="59.5784538" lon="18.015138">
        <ele>0</ele>
        <time>2011-10-23T17:24:48Z</time>
      </trkpt>
      <trkpt lat="59.5783266" lon="18.0141001">
        <ele>0</ele>
        <time>2011-10-23T17:24:56Z</time>
      </trkpt>
      <trkpt lat="59.5782041" lon="18.0135151">
        <ele>0</ele>
        <time>2011-10-23T17:25:01Z</time>
      </trkpt>
      <trkpt lat="59.5780171" lon="18.0131074">
        <ele>0</ele>
        <time>2011-10-23T17:25:05Z</time>
      </trkpt>
      <trkpt lat="59.5775926" lon="18.0124875">
        <ele>0</ele>
        <time>2011-10-23T17:25:12Z</time>
      </trkpt>
      <trkpt lat="59.5774261" lon="18.0120343">
        <ele>0</ele>
        <time>2011-10-23T17:25:16Z</time>
      </trkpt>
      <trkpt lat="59.5772566" lon="18.0112029">
        <ele>0</ele>
        <time>2011-10-23T17:25:22Z</time>
      </trkpt>
      <trkpt lat="59.5770205" lon="18.0103492">
        <ele>0</ele>
        <time>2011-10-23T17:25:28Z</time>
      </trkpt>
      <trkpt lat="59.5767624" lon="18.0093297">
        <ele>0</ele>
        <time>2011-10-23T17:25:35Z</time>
      </trkpt>
      <trkpt lat="59.5765288" lon="18.0082532">
        <ele>0</ele>
        <time>2011-10-23T17:25:43Z</time>
      </trkpt>
      <trkpt lat="59.5763373" lon="18.0074674">
        <ele>0</ele>
        <time>2011-10-23T17:25:49Z</time>
      </trkpt>
      <trkpt lat="59.5760232" lon="18.0061554">
        <ele>0</ele>
        <time>2011-10-23T17:25:58Z</time>
      </trkpt>
      <trkpt lat="59.5757322" lon="18.0049896">
        <ele>0</ele>
        <time>2011-10-23T17:26:06Z</time>
      </trkpt>
      <trkpt lat="59.5754281" lon="18.004231">
        <ele>0</ele>
        <time>2011-10-23T17:26:12Z</time>
      </trkpt>
      <trkpt lat="59.5749774" lon="18.003164">
        <ele>0</ele>
        <time>2011-10-23T17:26:21Z</time>
      </trkpt>
      <trkpt lat="59.574563" lon="18.0019098">
        <ele>0</ele>
        <time>2011-10-23T17:26:31Z</time>
      </trkpt>
      <trkpt lat="59.5742801" lon="18.0010473">
        <ele>0</ele>
        <time>2011-10-23T17:26:38Z</time>
      </trkpt>
      <trkpt lat="59.5739486" lon="17.9999953">
        <ele>0</ele>
        <time>2011-10-23T17:26:47Z</time>
      </trkpt>
      <trkpt lat="59.5736244" lon="17.9993352">
        <ele>0</ele>
        <time>2011-10-23T17:26:54Z</time>
      </trkpt>
      <trkpt lat="59.5731763" lon="17.9985151">
        <ele>0</ele>
        <time>2011-10-23T17:27:03Z</time>
      </trkpt>
      <trkpt lat="59.5729416" lon="17.9979376">
        <ele>0</ele>
        <time>2011-10-23T17:27:09Z</time>
      </trkpt>
      <trkpt lat="59.5728024" lon="17.997315">
        <ele>0</ele>
        <time>2011-10-23T17:27:15Z</time>
      </trkpt>
      <trkpt lat="59.5726659" lon="17.9965063">
        <ele>0</ele>
        <time>2011-10-23T17:27:22Z</time>
      </trkpt>
      <trkpt lat="59.5725091" lon="17.9955827">
        <ele>0</ele>
        <time>2011-10-23T17:27:30Z</time>
      </trkpt>
      <trkpt lat="59.5723236" lon="17.9945246">
        <ele>0</ele>
        <time>2011-10-23T17:27:39Z</time>
      </trkpt>
      <trkpt lat="59.5721656" lon="17.9936708">
        <ele>0</ele>
        <time>2011-10-23T17:27:46Z</time>
      </trkpt>
      <trkpt lat="59.571945" lon="17.9924908">
        <ele>0</ele>
        <time>2011-10-23T17:27:55Z</time>
      </trkpt>
      <trkpt lat="59.5717528" lon="17.9914655">
        <ele>0</ele>
        <time>2011-10-23T17:28:03Z</time>
      </trkpt>
      <trkpt lat="59.5715125" lon="17.9901846">
        <ele>0</ele>
        <time>2011-10-23T17:28:13Z</time>
      </trkpt>
      <trkpt lat="59.571344" lon="17.9893117">
        <ele>0</ele>
        <time>2011-10-23T17:28:20Z</time>
      </trkpt>
      <trkpt lat="59.5712007" lon="17.98856">
        <ele>0</ele>
        <time>2011-10-23T17:28:26Z</time>
      </trkpt>
      <trkpt lat="59.5711006" lon="17.9877204">
        <ele>0</ele>
        <time>2011-10-23T17:28:32Z</time>
      </trkpt>
      <trkpt lat="59.5711109" lon="17.9870022">
        <ele>0</ele>
        <time>2011-10-23T17:28:37Z</time>
      </trkpt>
      <trkpt lat="59.5712223" lon="17.9862897">
        <ele>0</ele>
        <time>2011-10-23T17:28:42Z</time>
      </trkpt>
      <trkpt lat="59.5714897" lon="17.9849683">
        <ele>0</ele>
        <time>2011-10-23T17:28:52Z</time>
      </trkpt>
      <trkpt lat="59.5716119" lon="17.984435">
        <ele>0</ele>
        <time>2011-10-23T17:28:57Z</time>
      </trkpt>
    </trkseg>
  </trk>
</gpx>